Home > Products > Valid Products > TAF

000
FTUS41 KCTP 040134 AAA
TAFAOO
TAF AMD
KAOO 040134Z 0402/0424 16006KT P6SM VCSH BKN040
     FM040400 14004KT 5SM -RA BR OVC025
     FM040700 13004KT 4SM -RA BR OVC007
     FM041600 VRB05KT 4SM BR OVC015
     FM042200 34005KT 5SM HZ BKN030=



000
FTUS41 KCTP 040133 AAA
TAFJST
TAF AMD
KJST 040133Z 0402/0424 15007KT 4SM -SHRA BR BKN035
     FM040300 14005KT 5SM -RA BR OVC018
     FM040500 14007KT 4SM -RA BR OVC007
     FM042100 34006KT 5SM HZ SCT025=



000
FTUS41 KCTP 040133 AAA
TAFJST
TAF AMD
KJST 040133Z 0402/0424 15007KT 4SM -SHRA BR BKN035
     FM040300 14005KT 5SM -RA BR OVC018
     FM040500 14007KT 4SM -RA BR OVC007
     FM042100 34006KT 5SM HZ SCT025=



000
FTUS41 KCTP 032334
TAFAOO
TAF
KAOO 032334Z 0400/0424 16006KT P6SM BKN040
     FM040100 14004KT 6SM -RA OVC025
     FM040500 13004KT 4SM -RA BR OVC007
     FM041600 VRB05KT 4SM BR OVC015
     FM042200 34005KT 5SM HZ BKN030=



000
FTUS41 KCTP 032334
TAFJST
TAF
KJST 032334Z 0400/0424 14007KT P6SM VCSH BKN025
     FM040100 14005KT 5SM -RA BR OVC018
     FM040400 14007KT 4SM -RA BR OVC007
     FM042100 34006KT 5SM HZ SCT025=



000
FTUS41 KCTP 032334
TAFBFD
TAF
KBFD 032334Z 0400/0424 17005KT P6SM SCT050
     FM040500 13005KT 6SM -RA BKN025 OVC050
     FM040700 14005KT 4SM -RA BR OVC008
     FM041500 12006KT P6SM SCT007 OVC012
     FM042000 35005KT P6SM SCT025=



000
FTUS41 KCTP 032334
TAFMDT
TAF
KMDT 032334Z 0400/0424 15005KT P6SM SCT040 BKN250
     FM040600 13004KT 4SM -RA BR OVC025
     FM041000 10003KT 4SM -RA BR OVC015
     FM042300 VRB05KT 5SM HZ BKN030=



000
FTUS41 KCTP 032334
TAFIPT
TAF
KIPT 032334Z 0400/0424 15005KT P6SM SCT040
     FM040700 08003KT 4SM -RA BR OVC015
     FM042300 32005KT P6SM BKN035=



000
FTUS41 KCTP 032334
TAFUNV
TAF
KUNV 032334Z 0400/0424 19005KT P6SM BKN040
     FM040400 15004KT 4SM -RA BR OVC025
     FM040600 12003KT 4SM -RA BR OVC007
     FM041500 09003KT 4SM -RA BR OVC015
     FM042200 34005KT P6SM BKN035=



000
FTUS41 KCTP 032334
TAFMDT
TAF
KMDT 032334Z 0400/0424 15005KT P6SM SCT040 BKN250
     FM040600 13004KT 4SM -RA BR OVC025
     FM041000 10003KT 4SM -RA BR OVC015
     FM042300 VRB05KT 5SM HZ BKN030=



000
FTUS41 KCTP 032334
TAFBFD
TAF
KBFD 032334Z 0400/0424 17005KT P6SM SCT050
     FM040500 13005KT 6SM -RA BKN025 OVC050
     FM040700 14005KT 4SM -RA BR OVC008
     FM041500 12006KT P6SM SCT007 OVC012
     FM042000 35005KT P6SM SCT025=



000
FTUS41 KCTP 032334
TAFAOO
TAF
KAOO 032334Z 0400/0424 16006KT P6SM BKN040
     FM040100 14004KT 6SM -RA OVC025
     FM040500 13004KT 4SM -RA BR OVC007
     FM041600 VRB05KT 4SM BR OVC015
     FM042200 34005KT 5SM HZ BKN030=



000
FTUS41 KCTP 032334
TAFUNV
TAF
KUNV 032334Z 0400/0424 19005KT P6SM BKN040
     FM040400 15004KT 4SM -RA BR OVC025
     FM040600 12003KT 4SM -RA BR OVC007
     FM041500 09003KT 4SM -RA BR OVC015
     FM042200 34005KT P6SM BKN035=



000
FTUS41 KCTP 032334
TAFJST
TAF
KJST 032334Z 0400/0424 14007KT P6SM VCSH BKN025
     FM040100 14005KT 5SM -RA BR OVC018
     FM040400 14007KT 4SM -RA BR OVC007
     FM042100 34006KT 5SM HZ SCT025=



000
FTUS41 KCTP 032334
TAFIPT
TAF
KIPT 032334Z 0400/0424 15005KT P6SM SCT040
     FM040700 08003KT 4SM -RA BR OVC015
     FM042300 32005KT P6SM BKN035=



000
FTUS41 KCTP 032237 AAB
TAFJST
TAF AMD
KJST 032237Z 0323/0418 14007KT P6SM VCSH BKN025
     FM040000 14005KT 6SM -RA OVC025
     FM040400 14007KT 4SM -RA BR OVC007=



000
FTUS41 KCTP 032237 AAB
TAFJST
TAF AMD
KJST 032237Z 0323/0418 14007KT P6SM VCSH BKN025
     FM040000 14005KT 6SM -RA OVC025
     FM040400 14007KT 4SM -RA BR OVC007=



000
FTUS41 KCTP 032128 AAA
TAFBFD
TAF AMD
KBFD 032128Z 0321/0418 17005KT P6SM SCT050
     FM040300 13005KT 5SM BR BKN010 OVC050
     FM040600 14005KT 4SM -RA BR OVC008
     FM041500 12006KT P6SM SCT007 OVC012=



000
FTUS41 KCTP 032128 AAA
TAFBFD
TAF AMD
KBFD 032128Z 0321/0418 17005KT P6SM SCT050
     FM040300 13005KT 5SM BR BKN010 OVC050
     FM040600 14005KT 4SM -RA BR OVC008
     FM041500 12006KT P6SM SCT007 OVC012=



000
FTUS41 KCTP 032128 AAA
TAFIPT
TAF AMD
KIPT 032128Z 0321/0418 21005KT P6SM SCT040
     FM040700 08003KT 4SM -RA BR OVC015=



000
FTUS41 KCTP 032128 AAA
TAFIPT
TAF AMD
KIPT 032128Z 0321/0418 21005KT P6SM SCT040
     FM040700 08003KT 4SM -RA BR OVC015=



000
FTUS41 KCTP 032128 AAA
TAFMDT
TAF AMD
KMDT 032128Z 0321/0418 14005KT P6SM SCT040 BKN250
     FM040600 13004KT 4SM -RA BR OVC025
     FM041000 10003KT 4SM -RA BR OVC015=



000
FTUS41 KCTP 032128 AAA
TAFJST
TAF AMD
KJST 032128Z 0321/0418 14007KT P6SM BKN035
     FM040000 14005KT 6SM -RA SCT025 OVC050
     FM040400 14007KT 4SM -RA BR OVC007=



000
FTUS41 KCTP 032128 AAA
TAFBFD
TAF AMD
KBFD 032128Z 0321/0418 17005KT P6SM SCT050
     FM040300 13005KT 5SM BR BKN010 OVC050
     FM040600 14005KT 4SM -RA BR OVC008
     FM041500 12006KT P6SM SCT007 OVC012=



000
FTUS41 KCTP 032128 AAA
TAFAOO
TAF AMD
KAOO 032128Z 0321/0418 16006KT P6SM BKN040
     FM040100 14004KT 6SM -RA OVC025
     FM040500 13004KT 4SM -RA BR OVC007
     FM041600 VRB05KT 4SM BR OVC015=



000
FTUS41 KCTP 032128 AAA
TAFMDT
TAF AMD
KMDT 032128Z 0321/0418 14005KT P6SM SCT040 BKN250
     FM040600 13004KT 4SM -RA BR OVC025
     FM041000 10003KT 4SM -RA BR OVC015=



000
FTUS41 KCTP 032128 AAA
TAFUNV
TAF AMD
KUNV 032128Z 0321/0418 21005KT P6SM BKN040
     FM040400 15004KT 4SM -RA BR OVC025
     FM040600 12003KT 4SM -RA BR OVC007
     FM041500 09003KT 4SM -RA BR OVC015=



000
FTUS41 KCTP 032128 AAA
TAFJST
TAF AMD
KJST 032128Z 0321/0418 14007KT P6SM BKN035
     FM040000 14005KT 6SM -RA SCT025 OVC050
     FM040400 14007KT 4SM -RA BR OVC007=



000
FTUS41 KCTP 032128 AAA
TAFUNV
TAF AMD
KUNV 032128Z 0321/0418 21005KT P6SM BKN040
     FM040400 15004KT 4SM -RA BR OVC025
     FM040600 12003KT 4SM -RA BR OVC007
     FM041500 09003KT 4SM -RA BR OVC015=



000
FTUS41 KCTP 031720
TAFUNV
TAF
KUNV 031720Z 0318/0418 05005KT P6SM BKN040
     FM040400 13002KT 4SM -RA HZ OVC025
     FM040600 07002KT 4SM -RA BR OVC007
     FM041500 09003KT 4SM -RA BR OVC015=



000
FTUS41 KCTP 031720
TAFIPT
TAF
KIPT 031720Z 0318/0418 11003KT P6SM SCT050
     FM040700 08003KT 4SM -RA BR OVC015=



000
FTUS41 KCTP 031720
TAFMDT
TAF
KMDT 031720Z 0318/0418 VRB03KT P6SM SCT040 BKN250
     FM040600 13003KT 4SM -RA BR OVC025
     FM041000 10003KT 4SM -RA BR OVC015=



000
FTUS41 KCTP 031720
TAFMDT
TAF
KMDT 031720Z 0318/0418 VRB03KT P6SM SCT040 BKN250
     FM040600 13003KT 4SM -RA BR OVC025
     FM041000 10003KT 4SM -RA BR OVC015=



000
FTUS41 KCTP 031720
TAFIPT
TAF
KIPT 031720Z 0318/0418 11003KT P6SM SCT050
     FM040700 08003KT 4SM -RA BR OVC015=



000
FTUS41 KCTP 031720
TAFAOO
TAF
KAOO 031720Z 0318/0418 15007KT P6SM SCT025 BKN035
     FM040100 14004KT 6SM -RA OVC025
     FM040500 16004KT 4SM -RA BR OVC007
     FM041600 VRB03KT 4SM BR OVC015=



000
FTUS41 KCTP 031720
TAFBFD
TAF
KBFD 031720Z 0318/0418 VRB04KT P6SM SCT050
     FM040300 13005KT 5SM BR BKN010 OVC050
     FM040600 14005KT 4SM -RA BR OVC008
     FM041500 12006KT P6SM SCT007 OVC012=



000
FTUS41 KCTP 031720
TAFUNV
TAF
KUNV 031720Z 0318/0418 05005KT P6SM BKN040
     FM040400 13002KT 4SM -RA HZ OVC025
     FM040600 07002KT 4SM -RA BR OVC007
     FM041500 09003KT 4SM -RA BR OVC015=



000
FTUS41 KCTP 031720
TAFJST
TAF
KJST 031720Z 0318/0418 14007KT P6SM SCT020 BKN035
     FM040000 14005KT 6SM -RA SCT025 OVC050
     FM040400 14007KT 4SM -RA BR OVC007=



000
FTUS41 KCTP 031720
TAFMDT
TAF
KMDT 031720Z 0318/0418 VRB03KT P6SM SCT040 BKN250
     FM040600 13003KT 4SM -RA BR OVC025
     FM041000 10003KT 4SM -RA BR OVC015=



000
FTUS41 KCTP 031720
TAFAOO
TAF
KAOO 031720Z 0318/0418 15007KT P6SM SCT025 BKN035
     FM040100 14004KT 6SM -RA OVC025
     FM040500 16004KT 4SM -RA BR OVC007
     FM041600 VRB03KT 4SM BR OVC015=



000
FTUS41 KCTP 031720
TAFUNV
TAF
KUNV 031720Z 0318/0418 05005KT P6SM BKN040
     FM040400 13002KT 4SM -RA HZ OVC025
     FM040600 07002KT 4SM -RA BR OVC007
     FM041500 09003KT 4SM -RA BR OVC015=



000
FTUS41 KCTP 031720
TAFAOO
TAF
KAOO 031720Z 0318/0418 15007KT P6SM SCT025 BKN035
     FM040100 14004KT 6SM -RA OVC025
     FM040500 16004KT 4SM -RA BR OVC007
     FM041600 VRB03KT 4SM BR OVC015=



000
FTUS41 KCTP 031720
TAFUNV
TAF
KUNV 031720Z 0318/0418 05005KT P6SM BKN040
     FM040400 13002KT 4SM -RA HZ OVC025
     FM040600 07002KT 4SM -RA BR OVC007
     FM041500 09003KT 4SM -RA BR OVC015=



000
FTUS41 KCTP 031720
TAFBFD
TAF
KBFD 031720Z 0318/0418 VRB04KT P6SM SCT050
     FM040300 13005KT 5SM BR BKN010 OVC050
     FM040600 14005KT 4SM -RA BR OVC008
     FM041500 12006KT P6SM SCT007 OVC012=



000
FTUS41 KCTP 031720
TAFIPT
TAF
KIPT 031720Z 0318/0418 11003KT P6SM SCT050
     FM040700 08003KT 4SM -RA BR OVC015=



000
FTUS41 KCTP 031720
TAFMDT
TAF
KMDT 031720Z 0318/0418 VRB03KT P6SM SCT040 BKN250
     FM040600 13003KT 4SM -RA BR OVC025
     FM041000 10003KT 4SM -RA BR OVC015=



000
FTUS41 KCTP 031720
TAFJST
TAF
KJST 031720Z 0318/0418 14007KT P6SM SCT020 BKN035
     FM040000 14005KT 6SM -RA SCT025 OVC050
     FM040400 14007KT 4SM -RA BR OVC007=



000
FTUS41 KCTP 031720
TAFJST
TAF
KJST 031720Z 0318/0418 14007KT P6SM SCT020 BKN035
     FM040000 14005KT 6SM -RA SCT025 OVC050
     FM040400 14007KT 4SM -RA BR OVC007=



000
FTUS41 KCTP 031720
TAFIPT
TAF
KIPT 031720Z 0318/0418 11003KT P6SM SCT050
     FM040700 08003KT 4SM -RA BR OVC015=



000
FTUS41 KCTP 031720
TAFBFD
TAF
KBFD 031720Z 0318/0418 VRB04KT P6SM SCT050
     FM040300 13005KT 5SM BR BKN010 OVC050
     FM040600 14005KT 4SM -RA BR OVC008
     FM041500 12006KT P6SM SCT007 OVC012=



000
FTUS41 KCTP 031720
TAFAOO
TAF
KAOO 031720Z 0318/0418 15007KT P6SM SCT025 BKN035
     FM040100 14004KT 6SM -RA OVC025
     FM040500 16004KT 4SM -RA BR OVC007
     FM041600 VRB03KT 4SM BR OVC015=



000
FTUS41 KCTP 031615 AAC
TAFAOO
TAF AMD
KAOO 031615Z 0316/0412 VRB03KT P6SM BKN016
     FM031700 15006KT P6SM SCT025 BKN050
     FM040000 16005KT P6SM -SHRA OVC050
     FM040400 09005KT 5SM -RA BR OVC010=



000
FTUS41 KCTP 031615 AAC
TAFAOO
TAF AMD
KAOO 031615Z 0316/0412 VRB03KT P6SM BKN016
     FM031700 15006KT P6SM SCT025 BKN050
     FM040000 16005KT P6SM -SHRA OVC050
     FM040400 09005KT 5SM -RA BR OVC010=



000
FTUS41 KCTP 031615 AAC
TAFAOO
TAF AMD
KAOO 031615Z 0316/0412 VRB03KT P6SM BKN016
     FM031700 15006KT P6SM SCT025 BKN050
     FM040000 16005KT P6SM -SHRA OVC050
     FM040400 09005KT 5SM -RA BR OVC010=



000
FTUS41 KCTP 031615 AAC
TAFAOO
TAF AMD
KAOO 031615Z 0316/0412 VRB03KT P6SM BKN016
     FM031700 15006KT P6SM SCT025 BKN050
     FM040000 16005KT P6SM -SHRA OVC050
     FM040400 09005KT 5SM -RA BR OVC010=



000
FTUS41 KCTP 031414 AAB
TAFUNV
TAF AMD
KUNV 031414Z 0314/0412 05005KT P6SM SCT025
     FM040000 VRB02KT P6SM -SHRA OVC050
     FM040500 06003KT 5SM -RA BR OVC015=



000
FTUS41 KCTP 031414 AAB
TAFUNV
TAF AMD
KUNV 031414Z 0314/0412 05005KT P6SM SCT025
     FM040000 VRB02KT P6SM -SHRA OVC050
     FM040500 06003KT 5SM -RA BR OVC015=



000
FTUS41 KCTP 031414 AAB
TAFAOO
TAF AMD
KAOO 031414Z 0314/0412 VRB03KT 6SM HZ BKN016
     FM031600 15006KT P6SM SCT025 BKN050
     FM040000 16005KT P6SM -SHRA OVC050
     FM040400 09005KT 5SM -RA BR OVC010=



000
FTUS41 KCTP 031414 AAB
TAFAOO
TAF AMD
KAOO 031414Z 0314/0412 VRB03KT 6SM HZ BKN016
     FM031600 15006KT P6SM SCT025 BKN050
     FM040000 16005KT P6SM -SHRA OVC050
     FM040400 09005KT 5SM -RA BR OVC010=



000
FTUS41 KCTP 031406 AAB
TAFJST
TAF AMD
KJST 031406Z 0314/0412 VRB04KT P6SM SCT010
     FM032100 14008KT P6SM -SHRA OVC040
     FM040300 13007KT 5SM -RA BR OVC010=



000
FTUS41 KCTP 031406 AAB
TAFJST
TAF AMD
KJST 031406Z 0314/0412 VRB04KT P6SM SCT010
     FM032100 14008KT P6SM -SHRA OVC040
     FM040300 13007KT 5SM -RA BR OVC010=



000
FTUS41 KCTP 031322 AAA
TAFUNV
TAF AMD
KUNV 031322Z 0313/0412 05005KT P6SM BKN025
     FM031500 12003KT P6SM SCT050
     FM040000 VRB02KT P6SM -SHRA OVC050
     FM040500 06003KT 5SM -RA BR OVC015=



000
FTUS41 KCTP 031322 AAA
TAFUNV
TAF AMD
KUNV 031322Z 0313/0412 05005KT P6SM BKN025
     FM031500 12003KT P6SM SCT050
     FM040000 VRB02KT P6SM -SHRA OVC050
     FM040500 06003KT 5SM -RA BR OVC015=



000
FTUS41 KCTP 031322 AAA
TAFAOO
TAF AMD
KAOO 031322Z 0313/0412 VRB03KT 3SM BR BKN006
     FM031600 15006KT P6SM BKN025
     FM031800 15007KT P6SM BKN050
     FM040000 16005KT P6SM -SHRA OVC050
     FM040400 09005KT 5SM -RA BR OVC010=



000
FTUS41 KCTP 031322 AAA
TAFAOO
TAF AMD
KAOO 031322Z 0313/0412 VRB03KT 3SM BR BKN006
     FM031600 15006KT P6SM BKN025
     FM031800 15007KT P6SM BKN050
     FM040000 16005KT P6SM -SHRA OVC050
     FM040400 09005KT 5SM -RA BR OVC010=



000
FTUS41 KCTP 031322 AAA
TAFAOO
TAF AMD
KAOO 031322Z 0313/0412 VRB03KT 3SM BR BKN006
     FM031600 15006KT P6SM BKN025
     FM031800 15007KT P6SM BKN050
     FM040000 16005KT P6SM -SHRA OVC050
     FM040400 09005KT 5SM -RA BR OVC010=



000
FTUS41 KCTP 031322 AAA
TAFUNV
TAF AMD
KUNV 031322Z 0313/0412 05005KT P6SM BKN025
     FM031500 12003KT P6SM SCT050
     FM040000 VRB02KT P6SM -SHRA OVC050
     FM040500 06003KT 5SM -RA BR OVC015=



000
FTUS41 KCTP 031322 AAA
TAFUNV
TAF AMD
KUNV 031322Z 0313/0412 05005KT P6SM BKN025
     FM031500 12003KT P6SM SCT050
     FM040000 VRB02KT P6SM -SHRA OVC050
     FM040500 06003KT 5SM -RA BR OVC015=



000
FTUS41 KCTP 031321 AAA
TAFJST
TAF AMD
KJST 031321Z 0313/0412 VRB03KT 1SM BR OVC003
     FM031600 14007KT P6SM SCT020
     FM032100 14008KT P6SM -SHRA OVC040
     FM040300 13007KT 5SM -RA BR OVC010=



000
FTUS41 KCTP 031321 AAA
TAFJST
TAF AMD
KJST 031321Z 0313/0412 VRB03KT 1SM BR OVC003
     FM031600 14007KT P6SM SCT020
     FM032100 14008KT P6SM -SHRA OVC040
     FM040300 13007KT 5SM -RA BR OVC010=



000
FTUS41 KCTP 031321 AAA
TAFJST
TAF AMD
KJST 031321Z 0313/0412 VRB03KT 1SM BR OVC003
     FM031600 14007KT P6SM SCT020
     FM032100 14008KT P6SM -SHRA OVC040
     FM040300 13007KT 5SM -RA BR OVC010=



000
FTUS41 KCTP 031133
TAFIPT
TAF
KIPT 031133Z 0312/0412 VRB03KT P6SM FEW050
     FM031500 11003KT P6SM SCT050
     FM040000 10004KT P6SM BKN050
     FM040600 09005KT 5SM -RA BR OVC015=



000
FTUS41 KCTP 031133
TAFMDT
TAF
KMDT 031133Z 0312/0412 00000KT P6SM SCT250
     FM031400 14004KT P6SM SCT050
     FM040000 13005KT P6SM BKN050
     FM040600 08008KT 5SM -RA BR OVC020=



000
FTUS41 KCTP 031133
TAFJST
TAF
KJST 031133Z 0312/0412 00000KT 2SM BR SCT004
      TEMPO 0312/0313 4SM HZ SCT005
     FM031300 14007KT P6SM SCT050
     FM032100 14008KT P6SM -SHRA OVC040
     FM040300 13007KT 5SM -RA BR OVC010=



000
FTUS41 KCTP 031133
TAFBFD
TAF
KBFD 031133Z 0312/0412 VRB03KT P6SM SCT025
     FM031500 12005KT P6SM SCT050
     FM040000 13005KT P6SM OVC050
     FM040600 14005KT 5SM -RA BR OVC010=



000
FTUS41 KCTP 031133
TAFUNV
TAF
KUNV 031133Z 0312/0412 05005KT P6SM FEW025
     FM031500 12003KT P6SM SCT050
     FM040000 VRB02KT P6SM -SHRA OVC050
     FM040500 06003KT 5SM -RA BR OVC015=



000
FTUS41 KCTP 031133
TAFAOO
TAF
KAOO 031133Z 0312/0412 VRB03KT 3SM BR BKN006
      TEMPO 0312/0313 4SM HZ SCT007
     FM031300 13005KT P6SM SCT050
     FM032100 16005KT P6SM -SHRA OVC050
     FM040400 09005KT 5SM -RA BR OVC010=



000
FTUS41 KCTP 031133
TAFBFD
TAF
KBFD 031133Z 0312/0412 VRB03KT P6SM SCT025
     FM031500 12005KT P6SM SCT050
     FM040000 13005KT P6SM OVC050
     FM040600 14005KT 5SM -RA BR OVC010=



000
FTUS41 KCTP 031133
TAFUNV
TAF
KUNV 031133Z 0312/0412 05005KT P6SM FEW025
     FM031500 12003KT P6SM SCT050
     FM040000 VRB02KT P6SM -SHRA OVC050
     FM040500 06003KT 5SM -RA BR OVC015=



000
FTUS41 KCTP 031133
TAFJST
TAF
KJST 031133Z 0312/0412 00000KT 2SM BR SCT004
      TEMPO 0312/0313 4SM HZ SCT005
     FM031300 14007KT P6SM SCT050
     FM032100 14008KT P6SM -SHRA OVC040
     FM040300 13007KT 5SM -RA BR OVC010=



000
FTUS41 KCTP 031133
TAFIPT
TAF
KIPT 031133Z 0312/0412 VRB03KT P6SM FEW050
     FM031500 11003KT P6SM SCT050
     FM040000 10004KT P6SM BKN050
     FM040600 09005KT 5SM -RA BR OVC015=



000
FTUS41 KCTP 031133
TAFMDT
TAF
KMDT 031133Z 0312/0412 00000KT P6SM SCT250
     FM031400 14004KT P6SM SCT050
     FM040000 13005KT P6SM BKN050
     FM040600 08008KT 5SM -RA BR OVC020=



000
FTUS41 KCTP 031133
TAFAOO
TAF
KAOO 031133Z 0312/0412 VRB03KT 3SM BR BKN006
      TEMPO 0312/0313 4SM HZ SCT007
     FM031300 13005KT P6SM SCT050
     FM032100 16005KT P6SM -SHRA OVC050
     FM040400 09005KT 5SM -RA BR OVC010=



000
FTUS41 KCTP 031133
TAFBFD
TAF
KBFD 031133Z 0312/0412 VRB03KT P6SM SCT025
     FM031500 12005KT P6SM SCT050
     FM040000 13005KT P6SM OVC050
     FM040600 14005KT 5SM -RA BR OVC010=



000
FTUS41 KCTP 031133
TAFIPT
TAF
KIPT 031133Z 0312/0412 VRB03KT P6SM FEW050
     FM031500 11003KT P6SM SCT050
     FM040000 10004KT P6SM BKN050
     FM040600 09005KT 5SM -RA BR OVC015=



000
FTUS41 KCTP 031133
TAFMDT
TAF
KMDT 031133Z 0312/0412 00000KT P6SM SCT250
     FM031400 14004KT P6SM SCT050
     FM040000 13005KT P6SM BKN050
     FM040600 08008KT 5SM -RA BR OVC020=



000
FTUS41 KCTP 031133
TAFAOO
TAF
KAOO 031133Z 0312/0412 VRB03KT 3SM BR BKN006
      TEMPO 0312/0313 4SM HZ SCT007
     FM031300 13005KT P6SM SCT050
     FM032100 16005KT P6SM -SHRA OVC050
     FM040400 09005KT 5SM -RA BR OVC010=



000
FTUS41 KCTP 031133
TAFJST
TAF
KJST 031133Z 0312/0412 00000KT 2SM BR SCT004
      TEMPO 0312/0313 4SM HZ SCT005
     FM031300 14007KT P6SM SCT050
     FM032100 14008KT P6SM -SHRA OVC040
     FM040300 13007KT 5SM -RA BR OVC010=



000
FTUS41 KCTP 031133
TAFUNV
TAF
KUNV 031133Z 0312/0412 05005KT P6SM FEW025
     FM031500 12003KT P6SM SCT050
     FM040000 VRB02KT P6SM -SHRA OVC050
     FM040500 06003KT 5SM -RA BR OVC015=



000
FTUS41 KCTP 031133
TAFMDT
TAF
KMDT 031133Z 0312/0412 00000KT P6SM SCT250
     FM031400 14004KT P6SM SCT050
     FM040000 13005KT P6SM BKN050
     FM040600 08008KT 5SM -RA BR OVC020=



000
FTUS41 KCTP 031133
TAFJST
TAF
KJST 031133Z 0312/0412 00000KT 2SM BR SCT004
      TEMPO 0312/0313 4SM HZ SCT005
     FM031300 14007KT P6SM SCT050
     FM032100 14008KT P6SM -SHRA OVC040
     FM040300 13007KT 5SM -RA BR OVC010=



000
FTUS41 KCTP 031133
TAFAOO
TAF
KAOO 031133Z 0312/0412 VRB03KT 3SM BR BKN006
      TEMPO 0312/0313 4SM HZ SCT007
     FM031300 13005KT P6SM SCT050
     FM032100 16005KT P6SM -SHRA OVC050
     FM040400 09005KT 5SM -RA BR OVC010=



000
FTUS41 KCTP 031133
TAFBFD
TAF
KBFD 031133Z 0312/0412 VRB03KT P6SM SCT025
     FM031500 12005KT P6SM SCT050
     FM040000 13005KT P6SM OVC050
     FM040600 14005KT 5SM -RA BR OVC010=



000
FTUS41 KCTP 031133
TAFIPT
TAF
KIPT 031133Z 0312/0412 VRB03KT P6SM FEW050
     FM031500 11003KT P6SM SCT050
     FM040000 10004KT P6SM BKN050
     FM040600 09005KT 5SM -RA BR OVC015=



000
FTUS41 KCTP 031133
TAFUNV
TAF
KUNV 031133Z 0312/0412 05005KT P6SM FEW025
     FM031500 12003KT P6SM SCT050
     FM040000 VRB02KT P6SM -SHRA OVC050
     FM040500 06003KT 5SM -RA BR OVC015=



000
FTUS41 KCTP 031004 AAB
TAFAOO
TAF AMD
KAOO 031004Z 0310/0406 VRB03KT 1 1/2SM BR BKN007
      TEMPO 0312/0314 4SM HZ SCT007
     FM031400 13005KT P6SM SCT050
     FM032100 16005KT P6SM -SHRA OVC050=



000
FTUS41 KCTP 031003 AAB
TAFJST
TAF AMD
KJST 031003Z 0310/0406 VRB03KT 3SM BR SCT025
      TEMPO 0310/0312 1/4SM FG
     FM031300 14007KT P6SM SCT050
     FM032100 14008KT P6SM -SHRA OVC040=



000
FTUS41 KCTP 031003 AAB
TAFJST
TAF AMD
KJST 031003Z 0310/0406 VRB03KT 3SM BR SCT025
      TEMPO 0310/0312 1/4SM FG
     FM031300 14007KT P6SM SCT050
     FM032100 14008KT P6SM -SHRA OVC040=



000
FTUS41 KCTP 030906 AAA
TAFAOO
TAF AMD
KAOO 030906Z 0309/0406 VRB03KT 1/4SM FG VV004
      TEMPO 0311/0314 3SM HZ SCT005
     FM031400 13005KT P6SM SCT050
     FM032100 16005KT P6SM -SHRA OVC050=



000
FTUS41 KCTP 030906 AAA
TAFIPT
TAF AMD
KIPT 030906Z 0309/0406 VRB03KT P6SM SCT050
      TEMPO 0309/0312 6SM BR SCT005
     FM031500 11003KT P6SM SCT050
     FM040000 10004KT P6SM BKN050=



000
FTUS41 KCTP 030906 AAA
TAFUNV
TAF AMD
KUNV 030906Z 0309/0406 02004KT P6SM SCT025
     FM031500 12003KT P6SM SCT050
     FM040000 VRB02KT P6SM -SHRA OVC050=



000
FTUS41 KCTP 030906 AAA
TAFBFD
TAF AMD
KBFD 030906Z 0309/0406 00000KT P6SM SCT030
      TEMPO 0309/0311 1SM BR SCT001
     FM031500 12005KT P6SM SCT050
     FM040000 13005KT P6SM BKN050=



000
FTUS41 KCTP 030906 AAA
TAFIPT
TAF AMD
KIPT 030906Z 0309/0406 VRB03KT P6SM SCT050
      TEMPO 0309/0312 6SM BR SCT005
     FM031500 11003KT P6SM SCT050
     FM040000 10004KT P6SM BKN050=



000
FTUS41 KCTP 030906 AAA
TAFMDT
TAF AMD
KMDT 030906Z 0309/0406 00000KT 6SM BR SKC
      TEMPO 0310/0312 3SM HZ
     FM031400 14004KT P6SM SCT050
     FM040000 13005KT P6SM BKN050=



000
FTUS41 KCTP 030906 AAA
TAFUNV
TAF AMD
KUNV 030906Z 0309/0406 02004KT P6SM SCT025
     FM031500 12003KT P6SM SCT050
     FM040000 VRB02KT P6SM -SHRA OVC050=



000
FTUS41 KCTP 030906 AAA
TAFJST
TAF AMD
KJST 030906Z 0309/0406 VRB03KT 4SM BR SCT025
     FM031300 14007KT P6SM SCT050
     FM032100 14008KT P6SM -SHRA OVC040=



000
FTUS41 KCTP 030906 AAA
TAFMDT
TAF AMD
KMDT 030906Z 0309/0406 00000KT 6SM BR SKC
      TEMPO 0310/0312 3SM HZ
     FM031400 14004KT P6SM SCT050
     FM040000 13005KT P6SM BKN050=



000
FTUS41 KCTP 030906 AAA
TAFBFD
TAF AMD
KBFD 030906Z 0309/0406 00000KT P6SM SCT030
      TEMPO 0309/0311 1SM BR SCT001
     FM031500 12005KT P6SM SCT050
     FM040000 13005KT P6SM BKN050=



000
FTUS41 KCTP 030906 AAA
TAFAOO
TAF AMD
KAOO 030906Z 0309/0406 VRB03KT 1/4SM FG VV004
      TEMPO 0311/0314 3SM HZ SCT005
     FM031400 13005KT P6SM SCT050
     FM032100 16005KT P6SM -SHRA OVC050=



000
FTUS41 KCTP 030906 AAA
TAFJST
TAF AMD
KJST 030906Z 0309/0406 VRB03KT 4SM BR SCT025
     FM031300 14007KT P6SM SCT050
     FM032100 14008KT P6SM -SHRA OVC040=



000
FTUS41 KCTP 030608 RRA
TAFBFD
TAF
KBFD 030608Z 0306/0406 00000KT P6SM SKC
      TEMPO 0307/0311 3SM BR
     FM031500 12005KT P6SM SCT050
     FM040000 13005KT P6SM BKN050=



000
FTUS41 KCTP 030608 RRA
TAFUNV
TAF
KUNV 030608Z 0306/0406 02004KT P6SM SCT025
     FM031500 12003KT P6SM SCT050
     FM040000 VRB02KT P6SM -SHRA OVC050=



000
FTUS41 KCTP 030608 RRA
TAFUNV
TAF
KUNV 030608Z 0306/0406 02004KT P6SM SCT025
     FM031500 12003KT P6SM SCT050
     FM040000 VRB02KT P6SM -SHRA OVC050=



000
FTUS41 KCTP 030608 RRA
TAFJST
TAF
KJST 030608Z 0306/0406 26004KT P6SM SCT250
     FM031000 VRB03KT 4SM BR SCT100
     FM031300 14007KT P6SM SCT050
     FM032100 14008KT P6SM -SHRA OVC040=



000
FTUS41 KCTP 030608 RRA
TAFAOO
TAF
KAOO 030608Z 0306/0406 VRB03KT 2SM BR SCT250
      TEMPO 0311/0314 5SM HZ
     FM031400 13005KT P6SM SCT050
     FM032100 16005KT P6SM -SHRA OVC050=



000
FTUS41 KCTP 030608 RRA
TAFMDT
TAF
KMDT 030608Z 0306/0406 00000KT 6SM BR SCT250
      TEMPO 0310/0312 3SM HZ
     FM031400 14004KT P6SM SCT050
     FM040000 13005KT P6SM BKN050=



000
FTUS41 KCTP 030608 RRA
TAFIPT
TAF
KIPT 030608Z 0306/0406 36003KT P6SM SCT050
     FM030900 VRB03KT 3SM BR BKN004
      TEMPO 0312/0313 6SM BR SCT005
     FM031500 11003KT P6SM SCT050
     FM040000 10004KT P6SM BKN050=



000
FTUS41 KCTP 030608 RRA
TAFBFD
TAF
KBFD 030608Z 0306/0406 00000KT P6SM SKC
      TEMPO 0307/0311 3SM BR
     FM031500 12005KT P6SM SCT050
     FM040000 13005KT P6SM BKN050=



000
FTUS41 KCTP 030608 RRA
TAFIPT
TAF
KIPT 030608Z 0306/0406 36003KT P6SM SCT050
     FM030900 VRB03KT 3SM BR BKN004
      TEMPO 0312/0313 6SM BR SCT005
     FM031500 11003KT P6SM SCT050
     FM040000 10004KT P6SM BKN050=



000
FTUS41 KCTP 030608 RRA
TAFJST
TAF
KJST 030608Z 0306/0406 26004KT P6SM SCT250
     FM031000 VRB03KT 4SM BR SCT100
     FM031300 14007KT P6SM SCT050
     FM032100 14008KT P6SM -SHRA OVC040=



000
FTUS41 KCTP 030608 RRA
TAFJST
TAF
KJST 030608Z 0306/0406 26004KT P6SM SCT250
     FM031000 VRB03KT 4SM BR SCT100
     FM031300 14007KT P6SM SCT050
     FM032100 14008KT P6SM -SHRA OVC040=



000
FTUS41 KCTP 030608 RRA
TAFUNV
TAF
KUNV 030608Z 0306/0406 02004KT P6SM SCT025
     FM031500 12003KT P6SM SCT050
     FM040000 VRB02KT P6SM -SHRA OVC050=



000
FTUS41 KCTP 030608 RRA
TAFUNV
TAF
KUNV 030608Z 0306/0406 02004KT P6SM SCT025
     FM031500 12003KT P6SM SCT050
     FM040000 VRB02KT P6SM -SHRA OVC050=



000
FTUS41 KCTP 030608 RRA
TAFAOO
TAF
KAOO 030608Z 0306/0406 VRB03KT 2SM BR SCT250
      TEMPO 0311/0314 5SM HZ
     FM031400 13005KT P6SM SCT050
     FM032100 16005KT P6SM -SHRA OVC050=



000
FTUS41 KCTP 030608 RRA
TAFAOO
TAF
KAOO 030608Z 0306/0406 VRB03KT 2SM BR SCT250
      TEMPO 0311/0314 5SM HZ
     FM031400 13005KT P6SM SCT050
     FM032100 16005KT P6SM -SHRA OVC050=



000
FTUS41 KCTP 030608 RRA
TAFBFD
TAF
KBFD 030608Z 0306/0406 00000KT P6SM SKC
      TEMPO 0307/0311 3SM BR
     FM031500 12005KT P6SM SCT050
     FM040000 13005KT P6SM BKN050=



000
FTUS41 KCTP 030608 RRA
TAFMDT
TAF
KMDT 030608Z 0306/0406 00000KT 6SM BR SCT250
      TEMPO 0310/0312 3SM HZ
     FM031400 14004KT P6SM SCT050
     FM040000 13005KT P6SM BKN050=



000
FTUS41 KCTP 030608 RRA
TAFIPT
TAF
KIPT 030608Z 0306/0406 36003KT P6SM SCT050
     FM030900 VRB03KT 3SM BR BKN004
      TEMPO 0312/0313 6SM BR SCT005
     FM031500 11003KT P6SM SCT050
     FM040000 10004KT P6SM BKN050=



000
FTUS41 KCTP 030608 RRA
TAFMDT
TAF
KMDT 030608Z 0306/0406 00000KT 6SM BR SCT250
      TEMPO 0310/0312 3SM HZ
     FM031400 14004KT P6SM SCT050
     FM040000 13005KT P6SM BKN050=



000
FTUS41 KCTP 030608 RRA
TAFJST
TAF
KJST 030608Z 0306/0406 26004KT P6SM SCT250
     FM031000 VRB03KT 4SM BR SCT100
     FM031300 14007KT P6SM SCT050
     FM032100 14008KT P6SM -SHRA OVC040=



000
FTUS41 KCTP 030608 RRA
TAFBFD
TAF
KBFD 030608Z 0306/0406 00000KT P6SM SKC
      TEMPO 0307/0311 3SM BR
     FM031500 12005KT P6SM SCT050
     FM040000 13005KT P6SM BKN050=



000
FTUS41 KCTP 030608 RRA
TAFMDT
TAF
KMDT 030608Z 0306/0406 00000KT 6SM BR SCT250
      TEMPO 0310/0312 3SM HZ
     FM031400 14004KT P6SM SCT050
     FM040000 13005KT P6SM BKN050=



000
FTUS41 KCTP 030608 RRA
TAFIPT
TAF
KIPT 030608Z 0306/0406 36003KT P6SM SCT050
     FM030900 VRB03KT 3SM BR BKN004
      TEMPO 0312/0313 6SM BR SCT005
     FM031500 11003KT P6SM SCT050
     FM040000 10004KT P6SM BKN050=



000
FTUS41 KCTP 030608 RRA
TAFAOO
TAF
KAOO 030608Z 0306/0406 VRB03KT 2SM BR SCT250
      TEMPO 0311/0314 5SM HZ
     FM031400 13005KT P6SM SCT050
     FM032100 16005KT P6SM -SHRA OVC050=



000
FTUS41 KCTP 022325
TAFMDT
TAF
KMDT 022325Z 0300/0324 20004KT P6SM SCT040 BKN250
     FM031100 VRB03KT 5SM BR SKC
     FM031300 VRB05KT P6SM FEW035=



000
FTUS41 KCTP 022325
TAFAOO
TAF
KAOO 022325Z 0300/0324 VRB04KT P6SM SCT035 BKN250
     FM030900 VRB03KT 4SM BR SKC
     FM031200 VRB05KT P6SM SCT030=



000
FTUS41 KCTP 022325
TAFIPT
TAF
KIPT 022325Z 0300/0324 VRB04KT P6SM SCT040 BKN250
     FM030900 VRB03KT 5SM BR BKN004
     FM031200 VRB05KT P6SM SCT030=



000
FTUS41 KCTP 022325
TAFUNV
TAF
KUNV 022325Z 0300/0324 VRB04KT P6SM SCT035 BKN250
     FM031000 VRB03KT 5SM BR SKC
     FM031200 VRB05KT P6SM SCT030=



000
FTUS41 KCTP 022325
TAFJST
TAF
KJST 022325Z 0300/0324 32005KT P6SM SCT030 BKN250
     FM030900 VRB03KT 4SM BR SKC
     FM031200 VRB05KT P6SM SCT030=



000
FTUS41 KCTP 022325
TAFBFD
TAF
KBFD 022325Z 0300/0324 34005KT P6SM SCT035
     FM030900 VRB03KT 3SM BR SKC
     FM031200 VRB05KT P6SM SCT030=



000
FTUS41 KCTP 022325
TAFJST
TAF
KJST 022325Z 0300/0324 32005KT P6SM SCT030 BKN250
     FM030900 VRB03KT 4SM BR SKC
     FM031200 VRB05KT P6SM SCT030=



000
FTUS41 KCTP 022325
TAFBFD
TAF
KBFD 022325Z 0300/0324 34005KT P6SM SCT035
     FM030900 VRB03KT 3SM BR SKC
     FM031200 VRB05KT P6SM SCT030=



000
FTUS41 KCTP 022325
TAFIPT
TAF
KIPT 022325Z 0300/0324 VRB04KT P6SM SCT040 BKN250
     FM030900 VRB03KT 5SM BR BKN004
     FM031200 VRB05KT P6SM SCT030=



000
FTUS41 KCTP 022325
TAFMDT
TAF
KMDT 022325Z 0300/0324 20004KT P6SM SCT040 BKN250
     FM031100 VRB03KT 5SM BR SKC
     FM031300 VRB05KT P6SM FEW035=



000
FTUS41 KCTP 022325
TAFAOO
TAF
KAOO 022325Z 0300/0324 VRB04KT P6SM SCT035 BKN250
     FM030900 VRB03KT 4SM BR SKC
     FM031200 VRB05KT P6SM SCT030=



000
FTUS41 KCTP 022325
TAFUNV
TAF
KUNV 022325Z 0300/0324 VRB04KT P6SM SCT035 BKN250
     FM031000 VRB03KT 5SM BR SKC
     FM031200 VRB05KT P6SM SCT030=



000
FTUS41 KCTP 022325
TAFJST
TAF
KJST 022325Z 0300/0324 32005KT P6SM SCT030 BKN250
     FM030900 VRB03KT 4SM BR SKC
     FM031200 VRB05KT P6SM SCT030=



000
FTUS41 KCTP 022325
TAFIPT
TAF
KIPT 022325Z 0300/0324 VRB04KT P6SM SCT040 BKN250
     FM030900 VRB03KT 5SM BR BKN004
     FM031200 VRB05KT P6SM SCT030=



000
FTUS41 KCTP 022325
TAFJST
TAF
KJST 022325Z 0300/0324 32005KT P6SM SCT030 BKN250
     FM030900 VRB03KT 4SM BR SKC
     FM031200 VRB05KT P6SM SCT030=



000
FTUS41 KCTP 022325
TAFAOO
TAF
KAOO 022325Z 0300/0324 VRB04KT P6SM SCT035 BKN250
     FM030900 VRB03KT 4SM BR SKC
     FM031200 VRB05KT P6SM SCT030=



000
FTUS41 KCTP 022325
TAFMDT
TAF
KMDT 022325Z 0300/0324 20004KT P6SM SCT040 BKN250
     FM031100 VRB03KT 5SM BR SKC
     FM031300 VRB05KT P6SM FEW035=



000
FTUS41 KCTP 022325
TAFUNV
TAF
KUNV 022325Z 0300/0324 VRB04KT P6SM SCT035 BKN250
     FM031000 VRB03KT 5SM BR SKC
     FM031200 VRB05KT P6SM SCT030=



000
FTUS41 KCTP 022325
TAFUNV
TAF
KUNV 022325Z 0300/0324 VRB04KT P6SM SCT035 BKN250
     FM031000 VRB03KT 5SM BR SKC
     FM031200 VRB05KT P6SM SCT030=



000
FTUS41 KCTP 022325
TAFBFD
TAF
KBFD 022325Z 0300/0324 34005KT P6SM SCT035
     FM030900 VRB03KT 3SM BR SKC
     FM031200 VRB05KT P6SM SCT030=



000
FTUS41 KCTP 022325
TAFAOO
TAF
KAOO 022325Z 0300/0324 VRB04KT P6SM SCT035 BKN250
     FM030900 VRB03KT 4SM BR SKC
     FM031200 VRB05KT P6SM SCT030=



000
FTUS41 KCTP 022325
TAFBFD
TAF
KBFD 022325Z 0300/0324 34005KT P6SM SCT035
     FM030900 VRB03KT 3SM BR SKC
     FM031200 VRB05KT P6SM SCT030=



000
FTUS41 KCTP 022325
TAFMDT
TAF
KMDT 022325Z 0300/0324 20004KT P6SM SCT040 BKN250
     FM031100 VRB03KT 5SM BR SKC
     FM031300 VRB05KT P6SM FEW035=



000
FTUS41 KCTP 022325
TAFIPT
TAF
KIPT 022325Z 0300/0324 VRB04KT P6SM SCT040 BKN250
     FM030900 VRB03KT 5SM BR BKN004
     FM031200 VRB05KT P6SM SCT030=



000
FTUS41 KCTP 022131 AAA
TAFAOO
TAF AMD
KAOO 022131Z 0222/0318 VRB04KT P6SM SCT035 BKN250
     FM030600 06003KT P6SM SCT050=



000
FTUS41 KCTP 022131 AAA
TAFIPT
TAF AMD
KIPT 022131Z 0222/0318 VRB04KT P6SM SCT040 BKN250=



000
FTUS41 KCTP 022131 AAA
TAFMDT
TAF AMD
KMDT 022131Z 0222/0318 20004KT P6SM SCT040 BKN250=



000
FTUS41 KCTP 022131 AAA
TAFIPT
TAF AMD
KIPT 022131Z 0222/0318 VRB04KT P6SM SCT040 BKN250=



000
FTUS41 KCTP 022131 AAB
TAFBFD
TAF AMD
KBFD 022131Z 0222/0318 VRB04KT P6SM SCT040
     FM030600 05003KT P6SM SKC=



000
FTUS41 KCTP 022131 AAA
TAFAOO
TAF AMD
KAOO 022131Z 0222/0318 VRB04KT P6SM SCT035 BKN250
     FM030600 06003KT P6SM SCT050=



000
FTUS41 KCTP 022131 AAA
TAFUNV
TAF AMD
KUNV 022131Z 0222/0318 VRB04KT P6SM SCT035 BKN250
     FM030600 03003KT P6SM SCT050=



000
FTUS41 KCTP 022131 AAB
TAFBFD
TAF AMD
KBFD 022131Z 0222/0318 VRB04KT P6SM SCT040
     FM030600 05003KT P6SM SKC=



000
FTUS41 KCTP 022131 AAA
TAFJST
TAF AMD
KJST 022131Z 0222/0318 VRB04KT P6SM SCT030 BKN250
     FM030600 09005KT P6SM SCT050=



000
FTUS41 KCTP 022131 AAA
TAFMDT
TAF AMD
KMDT 022131Z 0222/0318 20004KT P6SM SCT040 BKN250=



000
FTUS41 KCTP 022131 AAA
TAFJST
TAF AMD
KJST 022131Z 0222/0318 VRB04KT P6SM SCT030 BKN250
     FM030600 09005KT P6SM SCT050=



000
FTUS41 KCTP 022131 AAA
TAFUNV
TAF AMD
KUNV 022131Z 0222/0318 VRB04KT P6SM SCT035 BKN250
     FM030600 03003KT P6SM SCT050=



000
FTUS41 KCTP 021737 AAA
TAFBFD
TAF AMD
KBFD 021737Z 0218/0318 VRB03KT P6SM SCT025 BKN050
     FM030600 05003KT P6SM SKC=



000
FTUS41 KCTP 021737 AAA
TAFBFD
TAF AMD
KBFD 021737Z 0218/0318 VRB03KT P6SM SCT025 BKN050
     FM030600 05003KT P6SM SKC=



000
FTUS41 KCTP 021737 AAA
TAFBFD
TAF AMD
KBFD 021737Z 0218/0318 VRB03KT P6SM SCT025 BKN050
     FM030600 05003KT P6SM SKC=



000
FTUS41 KCTP 021720
TAFJST
TAF
KJST 021720Z 0218/0318 25006KT P6SM FEW020
     FM030600 09005KT P6SM SCT050=



000
FTUS41 KCTP 021720
TAFJST
TAF
KJST 021720Z 0218/0318 34007KT P6SM FEW040
     FM030600 09005KT P6SM SCT050
     FM030900 07003KT 4SM BR BKN250
     FM031300 11004KT P6SM BKN100=



000
FTUS41 KCTP 021720
TAFJST
TAF
KJST 021720Z 0218/0318 34007KT P6SM FEW040
     FM030600 09005KT P6SM SCT050
     FM030900 07003KT 4SM BR BKN250
     FM031300 11004KT P6SM BKN100=



000
FTUS41 KCTP 021720
TAFUNV
TAF
KUNV 021720Z 0218/0318 00000KT P6SM SCT070
     FM030600 03003KT P6SM SCT050
     FM030900 03003KT 4SM BR BKN250
     FM031300 07004KT P6SM BKN100=



000
FTUS41 KCTP 021720
TAFBFD
TAF
KBFD 021720Z 0218/0318 VRB04KT P6SM FEW023 SCT029 BKN045
     FM030600 05003KT P6SM SKC
     FM031300 09005KT P6SM FEW250=



000
FTUS41 KCTP 021720
TAFBFD
TAF
KBFD 021720Z 0218/0318 09003KT P6SM BKN009 OVC016
     FM030600 05003KT P6SM SKC=



000
FTUS41 KCTP 021720
TAFAOO
TAF
KAOO 021720Z 0218/0318 02003KT P6SM BKN045 BKN060
     FM030600 06003KT P6SM SCT050
     FM030900 07003KT 4SM BR BKN250
     FM031300 11004KT P6SM BKN100=



000
FTUS41 KCTP 021720
TAFMDT
TAF
KMDT 021720Z 0218/0318 19003KT P6SM FEW050 SCT100
     FM030200 12002KT P6SM SKC
     FM031300 02004KT P6SM BKN250=



000
FTUS41 KCTP 021720
TAFIPT
TAF
KIPT 021720Z 0218/0318 VRB04KT P6SM SCT050=



000
FTUS41 KCTP 021720
TAFUNV
TAF
KUNV 021720Z 0218/0318 00000KT P6SM SCT070
     FM030600 03003KT P6SM SCT050
     FM030900 03003KT 4SM BR BKN250
     FM031300 07004KT P6SM BKN100=



000
FTUS41 KCTP 021720
TAFAOO
TAF
KAOO 021720Z 0218/0318 VRB03KT P6SM FEW060
     FM030600 06003KT P6SM SCT050=



000
FTUS41 KCTP 021720
TAFMDT
TAF
KMDT 021720Z 0218/0318 19003KT P6SM FEW050 SCT100
     FM030200 12002KT P6SM SKC
     FM031300 02004KT P6SM BKN250=



000
FTUS41 KCTP 021720
TAFAOO
TAF
KAOO 021720Z 0218/0318 VRB03KT P6SM FEW060
     FM030600 06003KT P6SM SCT050=



000
FTUS41 KCTP 021720
TAFBFD
TAF
KBFD 021720Z 0218/0318 09003KT P6SM BKN009 OVC016
     FM030600 05003KT P6SM SKC=



000
FTUS41 KCTP 021720
TAFUNV
TAF
KUNV 021720Z 0218/0318 00000KT P6SM SCT070
     FM030600 03003KT P6SM SCT050=



000
FTUS41 KCTP 021720
TAFBFD
TAF
KBFD 021720Z 0218/0318 09003KT P6SM BKN009 OVC016
     FM030600 05003KT P6SM SKC=



000
FTUS41 KCTP 021720
TAFBFD
TAF
KBFD 021720Z 0218/0318 VRB04KT P6SM FEW023 SCT029 BKN045
     FM030600 05003KT P6SM SKC
     FM031300 09005KT P6SM FEW250=



000
FTUS41 KCTP 021720
TAFMDT
TAF
KMDT 021720Z 0218/0318 19003KT P6SM BKN250=



000
FTUS41 KCTP 021720
TAFAOO
TAF
KAOO 021720Z 0218/0318 02003KT P6SM BKN045 BKN060
     FM030600 06003KT P6SM SCT050
     FM030900 07003KT 4SM BR BKN250
     FM031300 11004KT P6SM BKN100=



000
FTUS41 KCTP 021720
TAFAOO
TAF
KAOO 021720Z 0218/0318 02003KT P6SM BKN045 BKN060
     FM030600 06003KT P6SM SCT050
     FM030900 07003KT 4SM BR BKN250
     FM031300 11004KT P6SM BKN100=



000
FTUS41 KCTP 021720
TAFBFD
TAF
KBFD 021720Z 0218/0318 VRB04KT P6SM FEW023 SCT029 BKN045
     FM030600 05003KT P6SM SKC
     FM031300 09005KT P6SM FEW250=



000
FTUS41 KCTP 021720
TAFAOO
TAF
KAOO 021720Z 0218/0318 02003KT P6SM BKN045 BKN060
     FM030600 06003KT P6SM SCT050
     FM030900 07003KT 4SM BR BKN250
     FM031300 11004KT P6SM BKN100=



000
FTUS41 KCTP 021720
TAFMDT
TAF
KMDT 021720Z 0218/0318 19003KT P6SM FEW050 SCT100
     FM030200 12002KT P6SM SKC
     FM031300 02004KT P6SM BKN250=



000
FTUS41 KCTP 021720
TAFIPT
TAF
KIPT 021720Z 0218/0318 00000KT P6SM SCT100
     FM030400 32002KT P6SM SKC
     FM031400 07002KT P6SM FEW250=



000
FTUS41 KCTP 021720
TAFMDT
TAF
KMDT 021720Z 0218/0318 19003KT P6SM BKN250=



000
FTUS41 KCTP 021720
TAFAOO
TAF
KAOO 021720Z 0218/0318 VRB03KT P6SM FEW060
     FM030600 06003KT P6SM SCT050=



000
FTUS41 KCTP 021720
TAFJST
TAF
KJST 021720Z 0218/0318 25006KT P6SM FEW020
     FM030600 09005KT P6SM SCT050=



000
FTUS41 KCTP 021720
TAFJST
TAF
KJST 021720Z 0218/0318 34007KT P6SM FEW040
     FM030600 09005KT P6SM SCT050
     FM030900 07003KT 4SM BR BKN250
     FM031300 11004KT P6SM BKN100=



000
FTUS41 KCTP 021720
TAFUNV
TAF
KUNV 021720Z 0218/0318 00000KT P6SM SCT070
     FM030600 03003KT P6SM SCT050
     FM030900 03003KT 4SM BR BKN250
     FM031300 07004KT P6SM BKN100=



000
FTUS41 KCTP 021720
TAFBFD
TAF
KBFD 021720Z 0218/0318 09003KT P6SM BKN009 OVC016
     FM030600 05003KT P6SM SKC=



000
FTUS41 KCTP 021720
TAFBFD
TAF
KBFD 021720Z 0218/0318 VRB04KT P6SM FEW023 SCT029 BKN045
     FM030600 05003KT P6SM SKC
     FM031300 09005KT P6SM FEW250=



000
FTUS41 KCTP 021720
TAFUNV
TAF
KUNV 021720Z 0218/0318 00000KT P6SM SCT070
     FM030600 03003KT P6SM SCT050=



000
FTUS41 KCTP 021720
TAFMDT
TAF
KMDT 021720Z 0218/0318 19003KT P6SM FEW050 SCT100
     FM030200 12002KT P6SM SKC
     FM031300 02004KT P6SM BKN250=



000
FTUS41 KCTP 021720
TAFJST
TAF
KJST 021720Z 0218/0318 25006KT P6SM FEW020
     FM030600 09005KT P6SM SCT050=



000
FTUS41 KCTP 021720
TAFAOO
TAF
KAOO 021720Z 0218/0318 VRB03KT P6SM FEW060
     FM030600 06003KT P6SM SCT050=



000
FTUS41 KCTP 021720
TAFUNV
TAF
KUNV 021720Z 0218/0318 00000KT P6SM SCT070
     FM030600 03003KT P6SM SCT050=



000
FTUS41 KCTP 021720
TAFMDT
TAF
KMDT 021720Z 0218/0318 19003KT P6SM BKN250=



000
FTUS41 KCTP 021720
TAFJST
TAF
KJST 021720Z 0218/0318 34007KT P6SM FEW040
     FM030600 09005KT P6SM SCT050
     FM030900 07003KT 4SM BR BKN250
     FM031300 11004KT P6SM BKN100=



000
FTUS41 KCTP 021720
TAFIPT
TAF
KIPT 021720Z 0218/0318 00000KT P6SM SCT100
     FM030400 32002KT P6SM SKC
     FM031400 07002KT P6SM FEW250=



000
FTUS41 KCTP 021720
TAFUNV
TAF
KUNV 021720Z 0218/0318 00000KT P6SM SCT070
     FM030600 03003KT P6SM SCT050
     FM030900 03003KT 4SM BR BKN250
     FM031300 07004KT P6SM BKN100=



000
FTUS41 KCTP 021720
TAFIPT
TAF
KIPT 021720Z 0218/0318 00000KT P6SM SCT100
     FM030400 32002KT P6SM SKC
     FM031400 07002KT P6SM FEW250=



000
FTUS41 KCTP 021609 AAB
TAFMDT
TAF AMD
KMDT 021609Z 0216/0312 19003KT P6SM FEW050 FEW070=



000
FTUS41 KCTP 021609 AAB
TAFJST
TAF AMD
KJST 021609Z 0216/0312 34007KT P6SM FEW040
     FM030600 09005KT P6SM SCT050=



000
FTUS41 KCTP 021609 AAB
TAFBFD
TAF AMD
KBFD 021609Z 0216/0312 VRB04KT P6SM FEW023 SCT029 BKN045
     FM030600 05003KT P6SM SKC=



000
FTUS41 KCTP 021609 AAB
TAFIPT
TAF AMD
KIPT 021609Z 0216/0312 00000KT P6SM FEW030=



000
FTUS41 KCTP 021609 AAB
TAFBFD
TAF AMD
KBFD 021609Z 0216/0312 VRB04KT P6SM FEW023 SCT029 BKN045
     FM030600 05003KT P6SM SKC=



000
FTUS41 KCTP 021609 AAB
TAFAOO
TAF AMD
KAOO 021609Z 0216/0312 02003KT P6SM BKN045 BKN060
     FM030600 06003KT P6SM SCT050=



000
FTUS41 KCTP 021609 AAB
TAFUNV
TAF AMD
KUNV 021609Z 0216/0312 00000KT P6SM SCT070
     FM030600 03003KT P6SM SCT050=



000
FTUS41 KCTP 021249 AAA
TAFJST
TAF AMD
KJST 021249Z 0213/0312 00000KT 5SM BR SKC
     FM021400 VRB03KT P6SM SCT100
     FM030600 09005KT P6SM SCT050=



000
FTUS41 KCTP 021249 AAA
TAFBFD
TAF AMD
KBFD 021249Z 0213/0312 00000KT 2SM BR OVC002
      TEMPO 0213/0214 5SM HZ SCT002
     FM021400 34005KT P6SM SCT050
     FM030600 05003KT P6SM SKC=



000
FTUS41 KCTP 021249 AAA
TAFBFD
TAF AMD
KBFD 021249Z 0213/0312 00000KT 2SM BR OVC002
      TEMPO 0213/0214 5SM HZ SCT002
     FM021400 34005KT P6SM SCT050
     FM030600 05003KT P6SM SKC=



000
FTUS41 KCTP 021249 AAA
TAFJST
TAF AMD
KJST 021249Z 0213/0312 00000KT 5SM BR SKC
     FM021400 VRB03KT P6SM SCT100
     FM030600 09005KT P6SM SCT050=



000
FTUS41 KCTP 021249 AAA
TAFMDT
TAF AMD
KMDT 021249Z 0213/0312 32006KT 6SM HZ SCT250
     FM021400 VRB03KT P6SM SCT050=



000
FTUS41 KCTP 021249 AAA
TAFIPT
TAF AMD
KIPT 021249Z 0213/0312 29005KT 4SM BR SCT004
     FM021400 VRB03KT P6SM SCT100=



000
FTUS41 KCTP 021249 AAA
TAFMDT
TAF AMD
KMDT 021249Z 0213/0312 32006KT 6SM HZ SCT250
     FM021400 VRB03KT P6SM SCT050=



000
FTUS41 KCTP 021249 AAA
TAFUNV
TAF AMD
KUNV 021249Z 0213/0312 26004KT 6SM HZ SCT100
     FM021400 VRB03KT P6SM SCT100
     FM030600 03003KT P6SM SCT050=



000
FTUS41 KCTP 021249 AAA
TAFUNV
TAF AMD
KUNV 021249Z 0213/0312 26004KT 6SM HZ SCT100
     FM021400 VRB03KT P6SM SCT100
     FM030600 03003KT P6SM SCT050=



000
FTUS41 KCTP 021249 AAA
TAFIPT
TAF AMD
KIPT 021249Z 0213/0312 29005KT 4SM BR SCT004
     FM021400 VRB03KT P6SM SCT100=



000
FTUS41 KCTP 021249 AAA
TAFAOO
TAF AMD
KAOO 021249Z 0213/0312 00000KT 3SM BR SCT035 SCT050
     FM021400 VRB03KT P6SM SCT100
     FM030600 06003KT P6SM SCT050=



000
FTUS41 KCTP 021249 AAA
TAFAOO
TAF AMD
KAOO 021249Z 0213/0312 00000KT 3SM BR SCT035 SCT050
     FM021400 VRB03KT P6SM SCT100
     FM030600 06003KT P6SM SCT050=



000
FTUS41 KCTP 021249 AAA
TAFBFD
TAF AMD
KBFD 021249Z 0213/0312 00000KT 2SM BR OVC002
      TEMPO 0213/0214 5SM HZ SCT002
     FM021400 34005KT P6SM SCT050
     FM030600 05003KT P6SM SKC=



000
FTUS41 KCTP 021249 AAA
TAFJST
TAF AMD
KJST 021249Z 0213/0312 00000KT 5SM BR SKC
     FM021400 VRB03KT P6SM SCT100
     FM030600 09005KT P6SM SCT050=



000
FTUS41 KCTP 021249 AAA
TAFUNV
TAF AMD
KUNV 021249Z 0213/0312 26004KT 6SM HZ SCT100
     FM021400 VRB03KT P6SM SCT100
     FM030600 03003KT P6SM SCT050=



000
FTUS41 KCTP 021249 AAA
TAFIPT
TAF AMD
KIPT 021249Z 0213/0312 29005KT 4SM BR SCT004
     FM021400 VRB03KT P6SM SCT100=



000
FTUS41 KCTP 021249 AAA
TAFMDT
TAF AMD
KMDT 021249Z 0213/0312 32006KT 6SM HZ SCT250
     FM021400 VRB03KT P6SM SCT050=



000
FTUS41 KCTP 021249 AAA
TAFJST
TAF AMD
KJST 021249Z 0213/0312 00000KT 5SM BR SKC
     FM021400 VRB03KT P6SM SCT100
     FM030600 09005KT P6SM SCT050=



000
FTUS41 KCTP 021249 AAA
TAFAOO
TAF AMD
KAOO 021249Z 0213/0312 00000KT 3SM BR SCT035 SCT050
     FM021400 VRB03KT P6SM SCT100
     FM030600 06003KT P6SM SCT050=



000
FTUS41 KCTP 021249 AAA
TAFMDT
TAF AMD
KMDT 021249Z 0213/0312 32006KT 6SM HZ SCT250
     FM021400 VRB03KT P6SM SCT050=



000
FTUS41 KCTP 021249 AAA
TAFUNV
TAF AMD
KUNV 021249Z 0213/0312 26004KT 6SM HZ SCT100
     FM021400 VRB03KT P6SM SCT100
     FM030600 03003KT P6SM SCT050=



000
FTUS41 KCTP 021249 AAA
TAFBFD
TAF AMD
KBFD 021249Z 0213/0312 00000KT 2SM BR OVC002
      TEMPO 0213/0214 5SM HZ SCT002
     FM021400 34005KT P6SM SCT050
     FM030600 05003KT P6SM SKC=



000
FTUS41 KCTP 021249 AAA
TAFAOO
TAF AMD
KAOO 021249Z 0213/0312 00000KT 3SM BR SCT035 SCT050
     FM021400 VRB03KT P6SM SCT100
     FM030600 06003KT P6SM SCT050=



000
FTUS41 KCTP 021249 AAA
TAFIPT
TAF AMD
KIPT 021249Z 0213/0312 29005KT 4SM BR SCT004
     FM021400 VRB03KT P6SM SCT100=



000
FTUS41 KCTP 021130
TAFIPT
TAF
KIPT 021130Z 0212/0312 00000KT P6SM BKN004
      TEMPO 0212/0213 SCT005
     FM021300 VRB03KT P6SM SCT100=



000
FTUS41 KCTP 021130
TAFUNV
TAF
KUNV 021130Z 0212/0312 26004KT 6SM HZ SCT100
     FM021300 VRB03KT P6SM SCT100
     FM030600 03003KT P6SM SCT050=



000
FTUS41 KCTP 021130
TAFJST
TAF
KJST 021130Z 0212/0312 23004KT 4SM HZ SCT100
     FM021400 VRB03KT P6SM SCT100
     FM030600 09005KT P6SM SCT050=



000
FTUS41 KCTP 021130
TAFBFD
TAF
KBFD 021130Z 0212/0312 VRB03KT 1/4SM FG BKN001
      TEMPO 0212/0213 5SM HZ SCT002
     FM021300 34005KT P6SM SCT050
     FM030600 05003KT P6SM SKC=



000
FTUS41 KCTP 021130
TAFMDT
TAF
KMDT 021130Z 0212/0312 33003KT 5SM HZ SCT100
     FM021400 VRB03KT P6SM SCT050=



000
FTUS41 KCTP 021130
TAFAOO
TAF
KAOO 021130Z 0212/0312 VRB02KT 3SM HZ SCT100
     FM021300 VRB03KT P6SM SCT100
     FM030600 06003KT P6SM SCT050=



000
FTUS41 KCTP 021130
TAFJST
TAF
KJST 021130Z 0212/0312 23004KT 4SM HZ SCT100
     FM021400 VRB03KT P6SM SCT100
     FM030600 09005KT P6SM SCT050=



000
FTUS41 KCTP 021130
TAFAOO
TAF
KAOO 021130Z 0212/0312 VRB02KT 3SM HZ SCT100
     FM021300 VRB03KT P6SM SCT100
     FM030600 06003KT P6SM SCT050=



000
FTUS41 KCTP 021130
TAFIPT
TAF
KIPT 021130Z 0212/0312 00000KT P6SM BKN004
      TEMPO 0212/0213 SCT005
     FM021300 VRB03KT P6SM SCT100=



000
FTUS41 KCTP 021130
TAFUNV
TAF
KUNV 021130Z 0212/0312 26004KT 6SM HZ SCT100
     FM021300 VRB03KT P6SM SCT100
     FM030600 03003KT P6SM SCT050=



000
FTUS41 KCTP 021130
TAFBFD
TAF
KBFD 021130Z 0212/0312 VRB03KT 1/4SM FG BKN001
      TEMPO 0212/0213 5SM HZ SCT002
     FM021300 34005KT P6SM SCT050
     FM030600 05003KT P6SM SKC=



000
FTUS41 KCTP 021130
TAFMDT
TAF
KMDT 021130Z 0212/0312 33003KT 5SM HZ SCT100
     FM021400 VRB03KT P6SM SCT050=



000
FTUS41 KCTP 021033 AAC
TAFBFD
TAF AMD
KBFD 021033Z 0211/0306 00000KT 1/2SM FG BKN001
      TEMPO 0211/0212 P6SM NSW SCT005
     FM021200 34005KT P6SM SCT050
     FM030000 04003KT P6SM SKC=



000
FTUS41 KCTP 021033 AAC
TAFBFD
TAF AMD
KBFD 021033Z 0211/0306 00000KT 1/2SM FG BKN001
      TEMPO 0211/0212 P6SM NSW SCT005
     FM021200 34005KT P6SM SCT050
     FM030000 04003KT P6SM SKC=



000
FTUS41 KCTP 021033 AAC
TAFAOO
TAF AMD
KAOO 021033Z 0211/0306 VRB02KT 2SM BR SCT005
      TEMPO 0212/0213 5SM BR SCT010
     FM021300 34003KT P6SM BKN025
     FM021600 35005KT P6SM SCT050=



000
FTUS41 KCTP 021033 AAC
TAFAOO
TAF AMD
KAOO 021033Z 0211/0306 VRB02KT 2SM BR SCT005
      TEMPO 0212/0213 5SM BR SCT010
     FM021300 34003KT P6SM BKN025
     FM021600 35005KT P6SM SCT050=



000
FTUS41 KCTP 020934 AAB
TAFUNV
TAF AMD
KUNV 020934Z 0210/0306 26004KT 6SM BR SCT050
      TEMPO 0210/0212 3SM BR SCT010
     FM021300 34003KT P6SM BKN025
     FM021600 35005KT P6SM SCT050=



000
FTUS41 KCTP 020934 AAB
TAFIPT
TAF AMD
KIPT 020934Z 0210/0306 00000KT 6SM BR BKN004
      TEMPO 0212/0213 5SM BR SCT010
     FM021300 VRB02KT P6SM BKN025
     FM021600 VRB03KT P6SM SCT050=



000
FTUS41 KCTP 020934 AAB
TAFJST
TAF AMD
KJST 020934Z 0210/0306 23004KT P6SM SCT050
     FM021030 26003KT 4SM BR BKN005
      TEMPO 0212/0213 5SM BR SCT010
     FM021300 31005KT P6SM BKN025
     FM021600 32005KT P6SM SCT050=



000
FTUS41 KCTP 020934 AAB
TAFAOO
TAF AMD
KAOO 020934Z 0210/0306 VRB03KT 4SM BR SCT050
     FM021030 VRB02KT 2SM BR SCT005
      TEMPO 0212/0213 5SM BR SCT010
     FM021300 34003KT P6SM BKN025
     FM021600 35005KT P6SM SCT050=



000
FTUS41 KCTP 020934 AAB
TAFUNV
TAF AMD
KUNV 020934Z 0210/0306 26004KT 6SM BR SCT050
      TEMPO 0210/0212 3SM BR SCT010
     FM021300 34003KT P6SM BKN025
     FM021600 35005KT P6SM SCT050=



000
FTUS41 KCTP 020934 AAB
TAFMDT
TAF AMD
KMDT 020934Z 0210/0306 33003KT P6SM SCT100
      TEMPO 0210/0212 4SM BR
     FM021500 VRB03KT P6SM SCT050=



000
FTUS41 KCTP 020934 AAB
TAFAOO
TAF AMD
KAOO 020934Z 0210/0306 VRB03KT 4SM BR SCT050
     FM021030 VRB02KT 2SM BR SCT005
      TEMPO 0212/0213 5SM BR SCT010
     FM021300 34003KT P6SM BKN025
     FM021600 35005KT P6SM SCT050=



000
FTUS41 KCTP 020934 AAB
TAFBFD
TAF AMD
KBFD 020934Z 0210/0306 00000KT 6SM BR BKN005
      TEMPO 0211/0212 P6SM NSW SCT010
     FM021200 34005KT P6SM SCT050
     FM030000 04003KT P6SM SKC=



000
FTUS41 KCTP 020934 AAB
TAFIPT
TAF AMD
KIPT 020934Z 0210/0306 00000KT 6SM BR BKN004
      TEMPO 0212/0213 5SM BR SCT010
     FM021300 VRB02KT P6SM BKN025
     FM021600 VRB03KT P6SM SCT050=



000
FTUS41 KCTP 020934 AAB
TAFJST
TAF AMD
KJST 020934Z 0210/0306 23004KT P6SM SCT050
     FM021030 26003KT 4SM BR BKN005
      TEMPO 0212/0213 5SM BR SCT010
     FM021300 31005KT P6SM BKN025
     FM021600 32005KT P6SM SCT050=



000
FTUS41 KCTP 020934 AAB
TAFBFD
TAF AMD
KBFD 020934Z 0210/0306 00000KT 6SM BR BKN005
      TEMPO 0211/0212 P6SM NSW SCT010
     FM021200 34005KT P6SM SCT050
     FM030000 04003KT P6SM SKC=



000
FTUS41 KCTP 020934 AAB
TAFAOO
TAF AMD
KAOO 020934Z 0210/0306 VRB03KT 4SM BR SCT050
     FM021030 VRB02KT 2SM BR SCT005
      TEMPO 0212/0213 5SM BR SCT010
     FM021300 34003KT P6SM BKN025
     FM021600 35005KT P6SM SCT050=



000
FTUS41 KCTP 020934 AAB
TAFBFD
TAF AMD
KBFD 020934Z 0210/0306 00000KT 6SM BR BKN005
      TEMPO 0211/0212 P6SM NSW SCT010
     FM021200 34005KT P6SM SCT050
     FM030000 04003KT P6SM SKC=



000
FTUS41 KCTP 020934 AAB
TAFMDT
TAF AMD
KMDT 020934Z 0210/0306 33003KT P6SM SCT100
      TEMPO 0210/0212 4SM BR
     FM021500 VRB03KT P6SM SCT050=



000
FTUS41 KCTP 020934 AAB
TAFIPT
TAF AMD
KIPT 020934Z 0210/0306 00000KT 6SM BR BKN004
      TEMPO 0212/0213 5SM BR SCT010
     FM021300 VRB02KT P6SM BKN025
     FM021600 VRB03KT P6SM SCT050=



000
FTUS41 KCTP 020934 AAB
TAFUNV
TAF AMD
KUNV 020934Z 0210/0306 26004KT 6SM BR SCT050
      TEMPO 0210/0212 3SM BR SCT010
     FM021300 34003KT P6SM BKN025
     FM021600 35005KT P6SM SCT050=



000
FTUS41 KCTP 020934 AAB
TAFJST
TAF AMD
KJST 020934Z 0210/0306 23004KT P6SM SCT050
     FM021030 26003KT 4SM BR BKN005
      TEMPO 0212/0213 5SM BR SCT010
     FM021300 31005KT P6SM BKN025
     FM021600 32005KT P6SM SCT050=



000
FTUS41 KCTP 020934 AAB
TAFMDT
TAF AMD
KMDT 020934Z 0210/0306 33003KT P6SM SCT100
      TEMPO 0210/0212 4SM BR
     FM021500 VRB03KT P6SM SCT050=



000
FTUS41 KCTP 020934 AAB
TAFIPT
TAF AMD
KIPT 020934Z 0210/0306 00000KT 6SM BR BKN004
      TEMPO 0212/0213 5SM BR SCT010
     FM021300 VRB02KT P6SM BKN025
     FM021600 VRB03KT P6SM SCT050=



000
FTUS41 KCTP 020934 AAB
TAFJST
TAF AMD
KJST 020934Z 0210/0306 23004KT P6SM SCT050
     FM021030 26003KT 4SM BR BKN005
      TEMPO 0212/0213 5SM BR SCT010
     FM021300 31005KT P6SM BKN025
     FM021600 32005KT P6SM SCT050=



000
FTUS41 KCTP 020934 AAB
TAFBFD
TAF AMD
KBFD 020934Z 0210/0306 00000KT 6SM BR BKN005
      TEMPO 0211/0212 P6SM NSW SCT010
     FM021200 34005KT P6SM SCT050
     FM030000 04003KT P6SM SKC=



000
FTUS41 KCTP 020934 AAB
TAFAOO
TAF AMD
KAOO 020934Z 0210/0306 VRB03KT 4SM BR SCT050
     FM021030 VRB02KT 2SM BR SCT005
      TEMPO 0212/0213 5SM BR SCT010
     FM021300 34003KT P6SM BKN025
     FM021600 35005KT P6SM SCT050=



000
FTUS41 KCTP 020934 AAB
TAFMDT
TAF AMD
KMDT 020934Z 0210/0306 33003KT P6SM SCT100
      TEMPO 0210/0212 4SM BR
     FM021500 VRB03KT P6SM SCT050=



000
FTUS41 KCTP 020934 AAB
TAFUNV
TAF AMD
KUNV 020934Z 0210/0306 26004KT 6SM BR SCT050
      TEMPO 0210/0212 3SM BR SCT010
     FM021300 34003KT P6SM BKN025
     FM021600 35005KT P6SM SCT050=



000
FTUS41 KCTP 020609 RRA
TAFUNV
TAF
KUNV 020609Z 0206/0306 26004KT 6SM BR SCT050
     FM020900 VRB02KT 2SM BR SCT005
      TEMPO 0212/0213 5SM BR SCT010
     FM021300 34003KT P6SM BKN025
     FM021600 35005KT P6SM SCT050=



000
FTUS41 KCTP 020609 RRA
TAFBFD
TAF
KBFD 020609Z 0206/0306 00000KT 2SM BR BKN003
      TEMPO 0212/0213 4SM BR FEW002
     FM021300 34005KT P6SM SCT050
     FM030000 04003KT P6SM SKC=



000
FTUS41 KCTP 020609 RRA
TAFAOO
TAF
KAOO 020609Z 0206/0306 VRB03KT 5SM BR SCT050
     FM021000 VRB02KT 2SM BR SCT005
      TEMPO 0212/0213 5SM BR SCT010
     FM021300 34003KT P6SM BKN025
     FM021600 35005KT P6SM SCT050=



000
FTUS41 KCTP 020609 RRA
TAFIPT
TAF
KIPT 020609Z 0206/0306 00000KT 6SM BR SCT050
     FM020900 VRB02KT 2SM BR SCT004
      TEMPO 0212/0213 5SM BR SCT010
     FM021300 VRB02KT P6SM BKN025
     FM021600 VRB03KT P6SM SCT050=



000
FTUS41 KCTP 020609 RRA
TAFMDT
TAF
KMDT 020609Z 0206/0306 33003KT P6SM SCT100
      TEMPO 0210/0212 4SM BR
     FM021500 VRB03KT P6SM SCT050=



000
FTUS41 KCTP 020609 RRA
TAFJST
TAF
KJST 020609Z 0206/0306 23004KT P6SM SCT050
     FM021000 26003KT 2SM BR BKN003
      TEMPO 0212/0213 5SM BR SCT010
     FM021300 31005KT P6SM BKN025
     FM021600 32005KT P6SM SCT050=



000
FTUS41 KCTP 020609 RRA
TAFIPT
TAF
KIPT 020609Z 0206/0306 00000KT 6SM BR SCT050
     FM020900 VRB02KT 2SM BR SCT004
      TEMPO 0212/0213 5SM BR SCT010
     FM021300 VRB02KT P6SM BKN025
     FM021600 VRB03KT P6SM SCT050=



000
FTUS41 KCTP 020609 RRA
TAFUNV
TAF
KUNV 020609Z 0206/0306 26004KT 6SM BR SCT050
     FM020900 VRB02KT 2SM BR SCT005
      TEMPO 0212/0213 5SM BR SCT010
     FM021300 34003KT P6SM BKN025
     FM021600 35005KT P6SM SCT050=



000
FTUS41 KCTP 020609 RRA
TAFAOO
TAF
KAOO 020609Z 0206/0306 VRB03KT 5SM BR SCT050
     FM021000 VRB02KT 2SM BR SCT005
      TEMPO 0212/0213 5SM BR SCT010
     FM021300 34003KT P6SM BKN025
     FM021600 35005KT P6SM SCT050=



000
FTUS41 KCTP 020609 RRA
TAFJST
TAF
KJST 020609Z 0206/0306 23004KT P6SM SCT050
     FM021000 26003KT 2SM BR BKN003
      TEMPO 0212/0213 5SM BR SCT010
     FM021300 31005KT P6SM BKN025
     FM021600 32005KT P6SM SCT050=



000
FTUS41 KCTP 020609 RRA
TAFBFD
TAF
KBFD 020609Z 0206/0306 00000KT 2SM BR BKN003
      TEMPO 0212/0213 4SM BR FEW002
     FM021300 34005KT P6SM SCT050
     FM030000 04003KT P6SM SKC=



000
FTUS41 KCTP 020609 RRA
TAFMDT
TAF
KMDT 020609Z 0206/0306 33003KT P6SM SCT100
      TEMPO 0210/0212 4SM BR
     FM021500 VRB03KT P6SM SCT050=



000
FTUS41 KCTP 020333 AAA
TAFBFD
TAF AMD
KBFD 020333Z 0204/0224 30006KT P6SM BKN060
     FM020700 30002KT 2SM BR BKN003
     FM020900 VRB03KT 1/4SM FG OVC001
     FM021400 35006KT P6SM SCT030=



000
FTUS41 KCTP 020333 AAA
TAFJST
TAF AMD
KJST 020333Z 0204/0224 26006KT P6SM SCT060
     FM020800 30002KT 2SM BR OVC003
     FM021000 VRB03KT 1/4SM FG OVC001
     FM021400 35006KT P6SM SCT030=



000
FTUS41 KCTP 020333 AAA
TAFIPT
TAF AMD
KIPT 020333Z 0204/0224 28006KT P6SM SCT080
     FM020800 VRB03KT 4SM BR BKN004
     FM021300 35006KT P6SM SCT035=



000
FTUS41 KCTP 020333 AAA
TAFAOO
TAF AMD
KAOO 020333Z 0204/0224 28006KT P6SM SCT070
     FM020900 VRB02KT 4SM BR BKN009
     FM021200 34004KT P6SM BKN015
     FM021400 35006KT P6SM SCT035=



000
FTUS41 KCTP 020333 AAA
TAFBFD
TAF AMD
KBFD 020333Z 0204/0224 30006KT P6SM BKN060
     FM020700 30002KT 2SM BR BKN003
     FM020900 VRB03KT 1/4SM FG OVC001
     FM021400 35006KT P6SM SCT030=



000
FTUS41 KCTP 020333 AAA
TAFUNV
TAF AMD
KUNV 020333Z 0204/0224 26006KT P6SM SCT070
     FM020900 VRB02KT 4SM BR BKN009
     FM021200 34004KT P6SM BKN015
     FM021400 35006KT P6SM SCT035=



000
FTUS41 KCTP 020333 AAA
TAFIPT
TAF AMD
KIPT 020333Z 0204/0224 28006KT P6SM SCT080
     FM020800 VRB03KT 4SM BR BKN004
     FM021300 35006KT P6SM SCT035=



000
FTUS41 KCTP 020333 AAA
TAFIPT
TAF AMD
KIPT 020333Z 0204/0224 28006KT P6SM SCT080
     FM020800 VRB03KT 4SM BR BKN004
     FM021300 35006KT P6SM SCT035=



000
FTUS41 KCTP 020333 AAA
TAFJST
TAF AMD
KJST 020333Z 0204/0224 26006KT P6SM SCT060
     FM020800 30002KT 2SM BR OVC003
     FM021000 VRB03KT 1/4SM FG OVC001
     FM021400 35006KT P6SM SCT030=



000
FTUS41 KCTP 020333 AAA
TAFUNV
TAF AMD
KUNV 020333Z 0204/0224 26006KT P6SM SCT070
     FM020900 VRB02KT 4SM BR BKN009
     FM021200 34004KT P6SM BKN015
     FM021400 35006KT P6SM SCT035=



000
FTUS41 KCTP 020333 AAA
TAFAOO
TAF AMD
KAOO 020333Z 0204/0224 28006KT P6SM SCT070
     FM020900 VRB02KT 4SM BR BKN009
     FM021200 34004KT P6SM BKN015
     FM021400 35006KT P6SM SCT035=



000
FTUS41 KCTP 020333 AAA
TAFMDT
TAF AMD
KMDT 020333Z 0204/0224 29005KT P6SM SKC
     FM020900 34003KT 5SM BR SCT250
     FM021300 35006KT P6SM SCT035=



000
FTUS41 KCTP 020333 AAA
TAFUNV
TAF AMD
KUNV 020333Z 0204/0224 26006KT P6SM SCT070
     FM020900 VRB02KT 4SM BR BKN009
     FM021200 34004KT P6SM BKN015
     FM021400 35006KT P6SM SCT035=



000
FTUS41 KCTP 020333 AAA
TAFJST
TAF AMD
KJST 020333Z 0204/0224 26006KT P6SM SCT060
     FM020800 30002KT 2SM BR OVC003
     FM021000 VRB03KT 1/4SM FG OVC001
     FM021400 35006KT P6SM SCT030=



000
FTUS41 KCTP 020333 AAA
TAFBFD
TAF AMD
KBFD 020333Z 0204/0224 30006KT P6SM BKN060
     FM020700 30002KT 2SM BR BKN003
     FM020900 VRB03KT 1/4SM FG OVC001
     FM021400 35006KT P6SM SCT030=



000
FTUS41 KCTP 020333 AAA
TAFBFD
TAF AMD
KBFD 020333Z 0204/0224 30006KT P6SM BKN060
     FM020700 30002KT 2SM BR BKN003
     FM020900 VRB03KT 1/4SM FG OVC001
     FM021400 35006KT P6SM SCT030=



000
FTUS41 KCTP 020333 AAA
TAFMDT
TAF AMD
KMDT 020333Z 0204/0224 29005KT P6SM SKC
     FM020900 34003KT 5SM BR SCT250
     FM021300 35006KT P6SM SCT035=



000
FTUS41 KCTP 012331
TAFJST
TAF
KJST 012331Z 0200/0224 28008G15KT P6SM SCT025 BKN035
     FM020100 29006KT P6SM SCT025 BKN035
     FM020500 30002KT 2SM BR OVC003
     FM020900 VRB03KT 1/4SM FG OVC001
     FM021400 35006KT P6SM SCT030=



000
FTUS41 KCTP 012331
TAFBFD
TAF
KBFD 012331Z 0200/0224 28008G15KT P6SM SCT025
     FM020100 30006KT P6SM SCT025
     FM020400 30002KT 2SM BR BKN003
     FM020700 VRB03KT 1/4SM FG OVC001
     FM021400 35006KT P6SM SCT030=



000
FTUS41 KCTP 012331
TAFJST
TAF
KJST 012331Z 0200/0224 28008G15KT P6SM SCT025 BKN035
     FM020100 29006KT P6SM SCT025 BKN035
     FM020500 30002KT 2SM BR OVC003
     FM020900 VRB03KT 1/4SM FG OVC001
     FM021400 35006KT P6SM SCT030=



000
FTUS41 KCTP 012331
TAFBFD
TAF
KBFD 012331Z 0200/0224 28008G15KT P6SM SCT025
     FM020100 30006KT P6SM SCT025
     FM020400 30002KT 2SM BR BKN003
     FM020700 VRB03KT 1/4SM FG OVC001
     FM021400 35006KT P6SM SCT030=



000
FTUS41 KCTP 012331
TAFIPT
TAF
KIPT 012331Z 0200/0224 27008G15KT P6SM SCT040
     FM020100 29006KT P6SM FEW040
     FM020700 VRB03KT 4SM BR BKN004
     FM021300 35006KT P6SM SCT035=



000
FTUS41 KCTP 012331
TAFAOO
TAF
KAOO 012331Z 0200/0224 29008G16KT P6SM BKN040
     FM020100 30006KT P6SM SCT040
     FM020900 VRB02KT 4SM BR BKN009
     FM021200 34004KT P6SM BKN015
     FM021400 35006KT P6SM SCT035=



000
FTUS41 KCTP 012331
TAFUNV
TAF
KUNV 012331Z 0200/0224 28008G15KT P6SM BKN040
     FM020100 29006KT P6SM SCT040
     FM020900 VRB02KT 4SM BR BKN009
     FM021200 34004KT P6SM BKN015
     FM021400 35006KT P6SM SCT035=



000
FTUS41 KCTP 012331
TAFMDT
TAF
KMDT 012331Z 0200/0224 28008G15KT P6SM SCT050
     FM020100 30007KT P6SM FEW050
     FM020900 34003KT 5SM BR SCT250
     FM021300 35006KT P6SM SCT035=



000
FTUS41 KCTP 012132 AAA
TAFUNV
TAF AMD
KUNV 012132Z 0122/0218 28010G20KT P6SM BKN040
     FM020100 29005KT P6SM SCT250
     FM020900 VRB02KT 4SM BR BKN009
     FM021200 34004KT P6SM BKN015
     FM021400 35006KT P6SM SCT035=



000
FTUS41 KCTP 012132 AAA
TAFMDT
TAF AMD
KMDT 012132Z 0122/0218 28010G20KT P6SM SCT050
     FM020000 30007KT P6SM SCT250
     FM020900 34003KT 5SM BR SCT250
     FM021300 35006KT P6SM BKN250=



000
FTUS41 KCTP 012132 AAB
TAFBFD
TAF AMD
KBFD 012132Z 0122/0218 28012G22KT P6SM SCT025 BKN035
     FM020100 30005KT P6SM SCT090
     FM020400 30002KT 2SM BR BKN003
     FM020700 VRB03KT 1/4SM FG OVC001
     FM021400 35006KT P6SM SCT030=



000
FTUS41 KCTP 012132 AAB
TAFBFD
TAF AMD
KBFD 012132Z 0122/0218 28012G22KT P6SM SCT025 BKN035
     FM020100 30005KT P6SM SCT090
     FM020400 30002KT 2SM BR BKN003
     FM020700 VRB03KT 1/4SM FG OVC001
     FM021400 35006KT P6SM SCT030=



000
FTUS41 KCTP 012132 AAA
TAFAOO
TAF AMD
KAOO 012132Z 0122/0218 29010G20KT P6SM BKN040
     FM020100 30005KT P6SM SCT250
     FM020900 VRB02KT 4SM BR BKN009
     FM021200 34004KT P6SM BKN015
     FM021400 35006KT P6SM SCT035=



000
FTUS41 KCTP 012132 AAA
TAFIPT
TAF AMD
KIPT 012132Z 0122/0218 26010G20KT P6SM BKN040
     FM020100 29004KT P6SM SCT250
     FM020700 VRB03KT 4SM BR BKN004
     FM021300 35006KT P6SM SCT035=



000
FTUS41 KCTP 012132 AAA
TAFAOO
TAF AMD
KAOO 012132Z 0122/0218 29010G20KT P6SM BKN040
     FM020100 30005KT P6SM SCT250
     FM020900 VRB02KT 4SM BR BKN009
     FM021200 34004KT P6SM BKN015
     FM021400 35006KT P6SM SCT035=



000
FTUS41 KCTP 012132 AAB
TAFJST
TAF AMD
KJST 012132Z 0122/0218 26010G20KT P6SM SCT025 BKN035
     FM020100 29005KT P6SM BKN100
     FM020500 30002KT 2SM BR OVC003
     FM020900 VRB03KT 1/4SM FG OVC001
     FM021400 35006KT P6SM SCT030=



000
FTUS41 KCTP 012132 AAB
TAFJST
TAF AMD
KJST 012132Z 0122/0218 26010G20KT P6SM SCT025 BKN035
     FM020100 29005KT P6SM BKN100
     FM020500 30002KT 2SM BR OVC003
     FM020900 VRB03KT 1/4SM FG OVC001
     FM021400 35006KT P6SM SCT030=



000
FTUS41 KCTP 012132 AAA
TAFIPT
TAF AMD
KIPT 012132Z 0122/0218 26010G20KT P6SM BKN040
     FM020100 29004KT P6SM SCT250
     FM020700 VRB03KT 4SM BR BKN004
     FM021300 35006KT P6SM SCT035=



000
FTUS41 KCTP 012132 AAA
TAFMDT
TAF AMD
KMDT 012132Z 0122/0218 28010G20KT P6SM SCT050
     FM020000 30007KT P6SM SCT250
     FM020900 34003KT 5SM BR SCT250
     FM021300 35006KT P6SM BKN250=



000
FTUS41 KCTP 012132 AAA
TAFUNV
TAF AMD
KUNV 012132Z 0122/0218 28010G20KT P6SM BKN040
     FM020100 29005KT P6SM SCT250
     FM020900 VRB02KT 4SM BR BKN009
     FM021200 34004KT P6SM BKN015
     FM021400 35006KT P6SM SCT035=



000
FTUS41 KCTP 012015 AAA
TAFBFD
TAF AMD
KBFD 012015Z 0120/0218 28010KT P6SM SCT025 BKN060
     FM020100 28005KT P6SM BKN100
     FM020600 30002KT 2SM BR OVC003
     FM020900 30002KT 1/4SM FG OVC001
      TEMPO 0213/0215 5SM BR SCT001 BKN009
     FM021500 35004KT P6SM BKN025=



000
FTUS41 KCTP 012015 AAA
TAFBFD
TAF AMD
KBFD 012015Z 0120/0218 28010KT P6SM SCT025 BKN060
     FM020100 28005KT P6SM BKN100
     FM020600 30002KT 2SM BR OVC003
     FM020900 30002KT 1/4SM FG OVC001
      TEMPO 0213/0215 5SM BR SCT001 BKN009
     FM021500 35004KT P6SM BKN025=



000
FTUS41 KCTP 012014 AAA
TAFJST
TAF AMD
KJST 012014Z 0120/0218 24012KT P6SM SCT025 BKN090
     FM020100 28005KT P6SM BKN100
     FM020600 28002KT 2SM BR OVC003
     FM020900 28002KT 1/4SM FG OVC001
      TEMPO 0213/0215 5SM BR SCT001 BKN009
     FM021500 28004KT P6SM BKN025=



000
FTUS41 KCTP 012014 AAA
TAFJST
TAF AMD
KJST 012014Z 0120/0218 24012KT P6SM SCT025 BKN090
     FM020100 28005KT P6SM BKN100
     FM020600 28002KT 2SM BR OVC003
     FM020900 28002KT 1/4SM FG OVC001
      TEMPO 0213/0215 5SM BR SCT001 BKN009
     FM021500 28004KT P6SM BKN025=



000
FTUS41 KCTP 011727
TAFUNV
TAF
KUNV 011727Z 0118/0218 27012KT P6SM SCT035 OVC045
     FM020100 29005KT P6SM SCT250
     FM020900 28002KT 4SM BR OVC007
     FM021300 27004KT P6SM BKN015
     FM021500 33004KT P6SM BKN050=



000
FTUS41 KCTP 011727
TAFMDT
TAF
KMDT 011727Z 0118/0218 28013KT P6SM SCT040
     FM020000 30007KT P6SM SCT250
     FM020900 34003KT 5SM BR SCT250
     FM021300 34006KT P6SM BKN250=



000
FTUS41 KCTP 011727
TAFJST
TAF
KJST 011727Z 0118/0218 24012KT P6SM BKN017 OVC022
     FM020100 28005KT P6SM BKN100
     FM020600 28002KT 2SM BR OVC003
     FM020900 28002KT 1/4SM FG OVC001
      TEMPO 0213/0215 5SM BR SCT001 BKN009
     FM021500 28004KT P6SM BKN025=



000
FTUS41 KCTP 011727
TAFAOO
TAF
KAOO 011727Z 0118/0218 28011G18KT P6SM SCT040 OVC050
     FM020100 29005KT P6SM SCT250
     FM020900 28002KT 4SM BR OVC007
     FM021300 27004KT P6SM BKN015
     FM021500 33004KT P6SM BKN050=



000
FTUS41 KCTP 011727
TAFBFD
TAF
KBFD 011727Z 0118/0218 27016G21KT P6SM VCSH FEW022 BKN040 OVC060
     FM012000 28010KT P6SM OVC025
     FM020100 28005KT P6SM BKN100
     FM020600 30002KT 2SM BR OVC003
     FM020900 30002KT 1/4SM FG OVC001
      TEMPO 0213/0215 5SM BR SCT001 BKN009
     FM021500 35004KT P6SM BKN025=



000
FTUS41 KCTP 011727
TAFIPT
TAF
KIPT 011727Z 0118/0218 26011KT P6SM FEW045 OVC060
     FM020100 29004KT P6SM SCT100
     FM020600 29004KT P6SM BKN025
     FM021000 30003KT P6SM OVC009=



000
FTUS41 KCTP 011727
TAFMDT
TAF
KMDT 011727Z 0118/0218 28013KT P6SM SCT040
     FM020000 30007KT P6SM SCT250
     FM020900 34003KT 5SM BR SCT250
     FM021300 34006KT P6SM BKN250=



000
FTUS41 KCTP 011727
TAFIPT
TAF
KIPT 011727Z 0118/0218 26011KT P6SM FEW045 OVC060
     FM020100 29004KT P6SM SCT100
     FM020600 29004KT P6SM BKN025
     FM021000 30003KT P6SM OVC009=



000
FTUS41 KCTP 011727
TAFUNV
TAF
KUNV 011727Z 0118/0218 27012KT P6SM SCT035 OVC045
     FM020100 29005KT P6SM SCT250
     FM020900 28002KT 4SM BR OVC007
     FM021300 27004KT P6SM BKN015
     FM021500 33004KT P6SM BKN050=



000
FTUS41 KCTP 011727
TAFJST
TAF
KJST 011727Z 0118/0218 24012KT P6SM BKN017 OVC022
     FM020100 28005KT P6SM BKN100
     FM020600 28002KT 2SM BR OVC003
     FM020900 28002KT 1/4SM FG OVC001
      TEMPO 0213/0215 5SM BR SCT001 BKN009
     FM021500 28004KT P6SM BKN025=



000
FTUS41 KCTP 011727
TAFIPT
TAF
KIPT 011727Z 0118/0218 26011KT P6SM FEW045 OVC060
     FM020100 29004KT P6SM SCT100
     FM020600 29004KT P6SM BKN025
     FM021000 30003KT P6SM OVC009=



000
FTUS41 KCTP 011727
TAFAOO
TAF
KAOO 011727Z 0118/0218 28011G18KT P6SM SCT040 OVC050
     FM020100 29005KT P6SM SCT250
     FM020900 28002KT 4SM BR OVC007
     FM021300 27004KT P6SM BKN015
     FM021500 33004KT P6SM BKN050=



000
FTUS41 KCTP 011727
TAFMDT
TAF
KMDT 011727Z 0118/0218 28013KT P6SM SCT040
     FM020000 30007KT P6SM SCT250
     FM020900 34003KT 5SM BR SCT250
     FM021300 34006KT P6SM BKN250=



000
FTUS41 KCTP 011727
TAFBFD
TAF
KBFD 011727Z 0118/0218 27016G21KT P6SM VCSH FEW022 BKN040 OVC060
     FM012000 28010KT P6SM OVC025
     FM020100 28005KT P6SM BKN100
     FM020600 30002KT 2SM BR OVC003
     FM020900 30002KT 1/4SM FG OVC001
      TEMPO 0213/0215 5SM BR SCT001 BKN009
     FM021500 35004KT P6SM BKN025=



000
FTUS41 KCTP 011521 AAA
TAFUNV
TAF AMD
KUNV 011521Z 0115/0212 26013KT P6SM BKN040 OVC045
     FM020100 29005KT P6SM SCT250
     FM020900 28002KT 4SM BR OVC007=



000
FTUS41 KCTP 011521 AAA
TAFAOO
TAF AMD
KAOO 011521Z 0115/0212 27010KT P6SM BKN026 OVC035
     FM020100 29005KT P6SM SCT250
     FM020900 28002KT 4SM BR OVC007=



000
FTUS41 KCTP 011521 AAA
TAFJST
TAF AMD
KJST 011521Z 0115/0212 26011G19KT 6SM HZ BKN011 OVC015
     FM020100 28005KT P6SM BKN100
     FM020600 28002KT 2SM BR OVC003
     FM020900 28002KT 1/4SM FG OVC001=



000
FTUS41 KCTP 011521 AAA
TAFJST
TAF AMD
KJST 011521Z 0115/0212 26011G19KT 6SM HZ BKN011 OVC015
     FM020100 28005KT P6SM BKN100
     FM020600 28002KT 2SM BR OVC003
     FM020900 28002KT 1/4SM FG OVC001=



000
FTUS41 KCTP 011521 AAA
TAFIPT
TAF AMD
KIPT 011521Z 0115/0212 28010G15KT P6SM FEW026 SCT045
     FM011600 26008G17KT P6SM SCT035
     FM020100 29004KT P6SM SCT100
     FM020600 29004KT P6SM BKN025
     FM021000 30003KT P6SM OVC009=



000
FTUS41 KCTP 011521 AAA
TAFUNV
TAF AMD
KUNV 011521Z 0115/0212 26013KT P6SM BKN040 OVC045
     FM020100 29005KT P6SM SCT250
     FM020900 28002KT 4SM BR OVC007=



000
FTUS41 KCTP 011521 AAA
TAFBFD
TAF AMD
KBFD 011521Z 0115/0212 26011G19KT P6SM VCSH FEW008 SCT013 BKN017
     FM011900 28010KT P6SM OVC025
     FM020100 28005KT P6SM BKN100
     FM020600 30002KT 2SM BR OVC003
     FM020900 30002KT 1/4SM FG OVC001=



000
FTUS41 KCTP 011521 AAA
TAFMDT
TAF AMD
KMDT 011521Z 0115/0212 29003KT P6SM FEW030
     FM020000 30007KT P6SM SCT250
     FM020900 34003KT 5SM BR SCT250=



000
FTUS41 KCTP 011521 AAA
TAFIPT
TAF AMD
KIPT 011521Z 0115/0212 28010G15KT P6SM FEW026 SCT045
     FM011600 26008G17KT P6SM SCT035
     FM020100 29004KT P6SM SCT100
     FM020600 29004KT P6SM BKN025
     FM021000 30003KT P6SM OVC009=



000
FTUS41 KCTP 011521 AAA
TAFBFD
TAF AMD
KBFD 011521Z 0115/0212 26011G19KT P6SM VCSH FEW008 SCT013 BKN017
     FM011900 28010KT P6SM OVC025
     FM020100 28005KT P6SM BKN100
     FM020600 30002KT 2SM BR OVC003
     FM020900 30002KT 1/4SM FG OVC001=



000
FTUS41 KCTP 011521 AAA
TAFMDT
TAF AMD
KMDT 011521Z 0115/0212 29003KT P6SM FEW030
     FM020000 30007KT P6SM SCT250
     FM020900 34003KT 5SM BR SCT250=



000
FTUS41 KCTP 011521 AAA
TAFAOO
TAF AMD
KAOO 011521Z 0115/0212 27010KT P6SM BKN026 OVC035
     FM020100 29005KT P6SM SCT250
     FM020900 28002KT 4SM BR OVC007=



000
FTUS41 KCTP 011521 AAA
TAFAOO
TAF AMD
KAOO 011521Z 0115/0212 27010KT P6SM BKN026 OVC035
     FM020100 29005KT P6SM SCT250
     FM020900 28002KT 4SM BR OVC007=



000
FTUS41 KCTP 011521 AAA
TAFIPT
TAF AMD
KIPT 011521Z 0115/0212 28010G15KT P6SM FEW026 SCT045
     FM011600 26008G17KT P6SM SCT035
     FM020100 29004KT P6SM SCT100
     FM020600 29004KT P6SM BKN025
     FM021000 30003KT P6SM OVC009=



000
FTUS41 KCTP 011521 AAA
TAFBFD
TAF AMD
KBFD 011521Z 0115/0212 26011G19KT P6SM VCSH FEW008 SCT013 BKN017
     FM011900 28010KT P6SM OVC025
     FM020100 28005KT P6SM BKN100
     FM020600 30002KT 2SM BR OVC003
     FM020900 30002KT 1/4SM FG OVC001=



000
FTUS41 KCTP 011521 AAA
TAFJST
TAF AMD
KJST 011521Z 0115/0212 26011G19KT 6SM HZ BKN011 OVC015
     FM020100 28005KT P6SM BKN100
     FM020600 28002KT 2SM BR OVC003
     FM020900 28002KT 1/4SM FG OVC001=



000
FTUS41 KCTP 011521 AAA
TAFUNV
TAF AMD
KUNV 011521Z 0115/0212 26013KT P6SM BKN040 OVC045
     FM020100 29005KT P6SM SCT250
     FM020900 28002KT 4SM BR OVC007=



000
FTUS41 KCTP 011521 AAA
TAFAOO
TAF AMD
KAOO 011521Z 0115/0212 27010KT P6SM BKN026 OVC035
     FM020100 29005KT P6SM SCT250
     FM020900 28002KT 4SM BR OVC007=



000
FTUS41 KCTP 011521 AAA
TAFMDT
TAF AMD
KMDT 011521Z 0115/0212 29003KT P6SM FEW030
     FM020000 30007KT P6SM SCT250
     FM020900 34003KT 5SM BR SCT250=



000
FTUS41 KCTP 011521 AAA
TAFUNV
TAF AMD
KUNV 011521Z 0115/0212 26013KT P6SM BKN040 OVC045
     FM020100 29005KT P6SM SCT250
     FM020900 28002KT 4SM BR OVC007=



000
FTUS41 KCTP 011521 AAA
TAFBFD
TAF AMD
KBFD 011521Z 0115/0212 26011G19KT P6SM VCSH FEW008 SCT013 BKN017
     FM011900 28010KT P6SM OVC025
     FM020100 28005KT P6SM BKN100
     FM020600 30002KT 2SM BR OVC003
     FM020900 30002KT 1/4SM FG OVC001=



000
FTUS41 KCTP 011521 AAA
TAFMDT
TAF AMD
KMDT 011521Z 0115/0212 29003KT P6SM FEW030
     FM020000 30007KT P6SM SCT250
     FM020900 34003KT 5SM BR SCT250=



000
FTUS41 KCTP 011521 AAA
TAFIPT
TAF AMD
KIPT 011521Z 0115/0212 28010G15KT P6SM FEW026 SCT045
     FM011600 26008G17KT P6SM SCT035
     FM020100 29004KT P6SM SCT100
     FM020600 29004KT P6SM BKN025
     FM021000 30003KT P6SM OVC009=



000
FTUS41 KCTP 011521 AAA
TAFJST
TAF AMD
KJST 011521Z 0115/0212 26011G19KT 6SM HZ BKN011 OVC015
     FM020100 28005KT P6SM BKN100
     FM020600 28002KT 2SM BR OVC003
     FM020900 28002KT 1/4SM FG OVC001=



000
FTUS41 KCTP 011120
TAFAOO
TAF
KAOO 011120Z 0112/0212 23007KT P6SM SCT100
     FM011300 29008G18KT P6SM SCT035
     FM020100 29005KT P6SM SCT250=



000
FTUS41 KCTP 011120
TAFJST
TAF
KJST 011120Z 0112/0212 24009KT P6SM OVC008
     FM011400 29008G19KT P6SM BKN025
     FM020100 28005KT P6SM BKN100=



000
FTUS41 KCTP 011120
TAFMDT
TAF
KMDT 011120Z 0112/0212 00000KT P6SM SCT110 OVC170
     FM011500 29008G21KT P6SM BKN050
     FM020000 30007KT P6SM SCT250=



000
FTUS41 KCTP 011120
TAFMDT
TAF
KMDT 011120Z 0112/0212 00000KT P6SM SCT110 OVC170
     FM011500 29008G21KT P6SM BKN050
     FM020000 30007KT P6SM SCT250=



000
FTUS41 KCTP 011120
TAFIPT
TAF
KIPT 011120Z 0112/0212 00000KT P6SM SCT025 BKN035
     FM011400 26007KT P6SM BKN045
     FM011600 26008G17KT P6SM SCT035
     FM020100 29004KT P6SM SCT250=



000
FTUS41 KCTP 011120
TAFIPT
TAF
KIPT 011120Z 0112/0212 00000KT P6SM SCT025 BKN035
     FM011400 26007KT P6SM BKN045
     FM011600 26008G17KT P6SM SCT035
     FM020100 29004KT P6SM SCT250=



000
FTUS41 KCTP 011120
TAFIPT
TAF
KIPT 011120Z 0112/0212 00000KT P6SM SCT025 BKN035
     FM011400 26007KT P6SM BKN045
     FM011600 26008G17KT P6SM SCT035
     FM020100 29004KT P6SM SCT250=



000
FTUS41 KCTP 011120
TAFBFD
TAF
KBFD 011120Z 0112/0212 21006KT 6SM BR VCSH OVC005
      TEMPO 0112/0114 29015G35KT 2SM -TSRA BR OVC012CB
     FM011400 29008G15KT P6SM BKN050=



000
FTUS41 KCTP 011120
TAFMDT
TAF
KMDT 011120Z 0112/0212 00000KT P6SM SCT110 OVC170
     FM011500 29008G21KT P6SM BKN050
     FM020000 30007KT P6SM SCT250=



000
FTUS41 KCTP 011120
TAFUNV
TAF
KUNV 011120Z 0112/0212 21004KT 6SM BR OVC015
     FM011300 29008G15KT P6SM SCT035
     FM020100 27005KT P6SM BKN250=



000
FTUS41 KCTP 011120
TAFAOO
TAF
KAOO 011120Z 0112/0212 23007KT P6SM SCT100
     FM011300 29008G18KT P6SM SCT035
     FM020100 29005KT P6SM SCT250=



000
FTUS41 KCTP 011120
TAFAOO
TAF
KAOO 011120Z 0112/0212 23007KT P6SM SCT100
     FM011300 29008G18KT P6SM SCT035
     FM020100 29005KT P6SM SCT250=



000
FTUS41 KCTP 011120
TAFJST
TAF
KJST 011120Z 0112/0212 24009KT P6SM OVC008
     FM011400 29008G19KT P6SM BKN025
     FM020100 28005KT P6SM BKN100=



000
FTUS41 KCTP 011120
TAFUNV
TAF
KUNV 011120Z 0112/0212 21004KT 6SM BR OVC015
     FM011300 29008G15KT P6SM SCT035
     FM020100 27005KT P6SM BKN250=



000
FTUS41 KCTP 011120
TAFIPT
TAF
KIPT 011120Z 0112/0212 00000KT P6SM SCT025 BKN035
     FM011400 26007KT P6SM BKN045
     FM011600 26008G17KT P6SM SCT035
     FM020100 29004KT P6SM SCT250=



000
FTUS41 KCTP 011120
TAFBFD
TAF
KBFD 011120Z 0112/0212 21006KT 6SM BR VCSH OVC005
      TEMPO 0112/0114 29015G35KT 2SM -TSRA BR OVC012CB
     FM011400 29008G15KT P6SM BKN050=



000
FTUS41 KCTP 011120
TAFBFD
TAF
KBFD 011120Z 0112/0212 21006KT 6SM BR VCSH OVC005
      TEMPO 0112/0114 29015G35KT 2SM -TSRA BR OVC012CB
     FM011400 29008G15KT P6SM BKN050=



000
FTUS41 KCTP 011120
TAFBFD
TAF
KBFD 011120Z 0112/0212 21006KT 6SM BR VCSH OVC005
      TEMPO 0112/0114 29015G35KT 2SM -TSRA BR OVC012CB
     FM011400 29008G15KT P6SM BKN050=



000
FTUS41 KCTP 011120
TAFUNV
TAF
KUNV 011120Z 0112/0212 21004KT 6SM BR OVC015
     FM011300 29008G15KT P6SM SCT035
     FM020100 27005KT P6SM BKN250=



000
FTUS41 KCTP 011120
TAFUNV
TAF
KUNV 011120Z 0112/0212 21004KT 6SM BR OVC015
     FM011300 29008G15KT P6SM SCT035
     FM020100 27005KT P6SM BKN250=



000
FTUS41 KCTP 011120
TAFMDT
TAF
KMDT 011120Z 0112/0212 00000KT P6SM SCT110 OVC170
     FM011500 29008G21KT P6SM BKN050
     FM020000 30007KT P6SM SCT250=



000
FTUS41 KCTP 011120
TAFJST
TAF
KJST 011120Z 0112/0212 24009KT P6SM OVC008
     FM011400 29008G19KT P6SM BKN025
     FM020100 28005KT P6SM BKN100=



000
FTUS41 KCTP 011120
TAFAOO
TAF
KAOO 011120Z 0112/0212 23007KT P6SM SCT100
     FM011300 29008G18KT P6SM SCT035
     FM020100 29005KT P6SM SCT250=



000
FTUS41 KCTP 011120
TAFJST
TAF
KJST 011120Z 0112/0212 24009KT P6SM OVC008
     FM011400 29008G19KT P6SM BKN025
     FM020100 28005KT P6SM BKN100=



000
FTUS41 KCTP 011046 AAB
TAFBFD
TAF AMD
KBFD 011046Z 0111/0206 21006KT 6SM BR VCSH OVC005
      TEMPO 0112/0114 29015G35KT 2SM -TSRA BR OVC012CB
     FM011400 29008G15KT P6SM SCT030=



000
FTUS41 KCTP 011046 AAB
TAFBFD
TAF AMD
KBFD 011046Z 0111/0206 21006KT 6SM BR VCSH OVC005
      TEMPO 0112/0114 29015G35KT 2SM -TSRA BR OVC012CB
     FM011400 29008G15KT P6SM SCT030=



000
FTUS41 KCTP 011046 AAB
TAFBFD
TAF AMD
KBFD 011046Z 0111/0206 21006KT 6SM BR VCSH OVC005
      TEMPO 0112/0114 29015G35KT 2SM -TSRA BR OVC012CB
     FM011400 29008G15KT P6SM SCT030=



000
FTUS41 KCTP 011046 AAB
TAFBFD
TAF AMD
KBFD 011046Z 0111/0206 21006KT 6SM BR VCSH OVC005
      TEMPO 0112/0114 29015G35KT 2SM -TSRA BR OVC012CB
     FM011400 29008G15KT P6SM SCT030=



000
FTUS41 KCTP 011044 AAB
TAFIPT
TAF AMD
KIPT 011044Z 0111/0206 00000KT P6SM SCT025 BKN035
     FM011400 26007KT P6SM BKN045
     FM011600 26008G17KT P6SM SCT035=



000
FTUS41 KCTP 011044 AAB
TAFIPT
TAF AMD
KIPT 011044Z 0111/0206 00000KT P6SM SCT025 BKN035
     FM011400 26007KT P6SM BKN045
     FM011600 26008G17KT P6SM SCT035=



000
FTUS41 KCTP 011044 AAB
TAFIPT
TAF AMD
KIPT 011044Z 0111/0206 00000KT P6SM SCT025 BKN035
     FM011400 26007KT P6SM BKN045
     FM011600 26008G17KT P6SM SCT035=



000
FTUS41 KCTP 011044 AAB
TAFIPT
TAF AMD
KIPT 011044Z 0111/0206 00000KT P6SM SCT025 BKN035
     FM011400 26007KT P6SM BKN045
     FM011600 26008G17KT P6SM SCT035=



000
FTUS41 KCTP 010826 AAA
TAFBFD
TAF AMD
KBFD 010826Z 0108/0206 22006KT 6SM BR VCSH BKN006 OVC012
     FM011400 29008G15KT P6SM SCT030=



000
FTUS41 KCTP 010826 AAA
TAFBFD
TAF AMD
KBFD 010826Z 0108/0206 22006KT 6SM BR VCSH BKN006 OVC012
     FM011400 29008G15KT P6SM SCT030=



000
FTUS41 KCTP 010825 AAA
TAFJST
TAF AMD
KJST 010825Z 0108/0206 24006KT P6SM SCT025 BKN045
     FM011400 30008G15KT P6SM SCT030=



000
FTUS41 KCTP 010825 AAA
TAFJST
TAF AMD
KJST 010825Z 0108/0206 24006KT P6SM SCT025 BKN045
     FM011400 30008G15KT P6SM SCT030=



000
FTUS41 KCTP 010825 AAA
TAFJST
TAF AMD
KJST 010825Z 0108/0206 24006KT P6SM SCT025 BKN045
     FM011400 30008G15KT P6SM SCT030=



000
FTUS41 KCTP 010825 AAA
TAFJST
TAF AMD
KJST 010825Z 0108/0206 24006KT P6SM SCT025 BKN045
     FM011400 30008G15KT P6SM SCT030=



000
FTUS41 KCTP 010743 AAA
TAFIPT
TAF AMD
KIPT 010743Z 0108/0206 00000KT P6SM BKN006
     FM011000 26006KT 4SM BR BKN004
     FM011300 28008G15KT P6SM SCT035=



000
FTUS41 KCTP 010743 AAA
TAFIPT
TAF AMD
KIPT 010743Z 0108/0206 00000KT P6SM BKN006
     FM011000 26006KT 4SM BR BKN004
     FM011300 28008G15KT P6SM SCT035=



000
FTUS41 KCTP 010743 AAA
TAFIPT
TAF AMD
KIPT 010743Z 0108/0206 00000KT P6SM BKN006
     FM011000 26006KT 4SM BR BKN004
     FM011300 28008G15KT P6SM SCT035=



000
FTUS41 KCTP 010742 RRA
TAFMDT
TAF
KMDT 010742Z 0108/0206 VRB05KT P6SM -RA SCT060 OVC140
     FM011000 26006KT 4SM BR SCT020
     FM011300 29008G15KT P6SM SCT035=



000
FTUS41 KCTP 010742 RRA
TAFMDT
TAF
KMDT 010742Z 0108/0206 VRB05KT P6SM -RA SCT060 OVC140
     FM011000 26006KT 4SM BR SCT020
     FM011300 29008G15KT P6SM SCT035=



000
FTUS41 KCTP 010547
TAFIPT
TAF
KIPT 010547Z 0106/0206 00000KT P6SM BKN003 BKN009 OVC045
     FM010800 26006KT 4SM BR BKN004
     FM011300 28008G15KT P6SM SCT035=



000
FTUS41 KCTP 010547
TAFBFD
TAF
KBFD 010547Z 0106/0206 VRB03KT 6SM BR VCSH OVC003
      TEMPO 0106/0108 2SM BR OVC006
     FM010800 28006KT 4SM BR OVC009
     FM011400 29008G15KT P6SM SCT030=



000
FTUS41 KCTP 010547
TAFAOO
TAF
KAOO 010547Z 0106/0206 21007KT P6SM BKN090
     FM010800 28007KT 5SM BR BKN020
     FM011300 29008G15KT P6SM SCT035=



000
FTUS41 KCTP 010547
TAFJST
TAF
KJST 010547Z 0106/0206 21004KT P6SM SCT015
     FM010700 29007KT 3SM BR OVC009
     FM011400 30008G15KT P6SM SCT030=



000
FTUS41 KCTP 010547
TAFMDT
TAF
KMDT 010547Z 0106/0206 VRB03KT P6SM VCSH SCT050 OVC110
     FM010800 26006KT 4SM BR SCT020
     FM011300 29008G15KT P6SM SCT035=



000
FTUS41 KCTP 010547
TAFJST
TAF
KJST 010547Z 0106/0206 21004KT P6SM SCT015
     FM010700 29007KT 3SM BR OVC009
     FM011400 30008G15KT P6SM SCT030=



000
FTUS41 KCTP 010547
TAFBFD
TAF
KBFD 010547Z 0106/0206 VRB03KT 6SM BR VCSH OVC003
      TEMPO 0106/0108 2SM BR OVC006
     FM010800 28006KT 4SM BR OVC009
     FM011400 29008G15KT P6SM SCT030=



000
FTUS41 KCTP 010547
TAFMDT
TAF
KMDT 010547Z 0106/0206 VRB03KT P6SM VCSH SCT050 OVC110
     FM010800 26006KT 4SM BR SCT020
     FM011300 29008G15KT P6SM SCT035=



000
FTUS41 KCTP 010547
TAFAOO
TAF
KAOO 010547Z 0106/0206 21007KT P6SM BKN090
     FM010800 28007KT 5SM BR BKN020
     FM011300 29008G15KT P6SM SCT035=



000
FTUS41 KCTP 010547
TAFIPT
TAF
KIPT 010547Z 0106/0206 00000KT P6SM BKN003 BKN009 OVC045
     FM010800 26006KT 4SM BR BKN004
     FM011300 28008G15KT P6SM SCT035=



000
FTUS41 KCTP 010547
TAFUNV
TAF
KUNV 010547Z 0106/0206 21003KT P6SM BKN025 BKN080
     FM010800 27007KT 5SM BR BKN020
     FM011300 29008G15KT P6SM SCT035=



000
FTUS41 KCTP 010547
TAFUNV
TAF
KUNV 010547Z 0106/0206 21003KT P6SM BKN025 BKN080
     FM010800 27007KT 5SM BR BKN020
     FM011300 29008G15KT P6SM SCT035=



000
FTUS41 KCTP 010403 AAC
TAFJST
TAF AMD
KJST 010403Z 0104/0124 23008KT P6SM BKN018
     FM010700 29007KT 3SM BR OVC009
     FM011400 30008G15KT P6SM SCT030=



000
FTUS41 KCTP 010403 AAC
TAFJST
TAF AMD
KJST 010403Z 0104/0124 23008KT P6SM BKN018
     FM010700 29007KT 3SM BR OVC009
     FM011400 30008G15KT P6SM SCT030=



000
FTUS41 KCTP 010403 AAC
TAFIPT
TAF AMD
KIPT 010403Z 0104/0124 07007KT P6SM VCSH BKN006
     FM010700 26006KT 4SM BR BKN004
     FM011300 28008G15KT P6SM SCT035=



000
FTUS41 KCTP 010403 AAC
TAFIPT
TAF AMD
KIPT 010403Z 0104/0124 07007KT P6SM VCSH BKN006
     FM010700 26006KT 4SM BR BKN004
     FM011300 28008G15KT P6SM SCT035=



000
FTUS41 KCTP 010335 AAB
TAFJST
TAF AMD
KJST 010335Z 0104/0124 23008KT P6SM SCT018 BKN090
     FM010700 29007KT 3SM BR OVC009
     FM011400 30008G15KT P6SM SCT030=



000
FTUS41 KCTP 010335 AAA
TAFMDT
TAF AMD
KMDT 010335Z 0104/0124 15006KT P6SM VCTS BKN035CB
      TEMPO 0104/0105 26015G28KT 1SM +TSRA BR OVC025CB
     FM010500 24006KT P6SM SCT030
     FM010800 26006KT 4SM BR SCT020
     FM011300 29008G15KT P6SM SCT035=



000
FTUS41 KCTP 010335 AAB
TAFIPT
TAF AMD
KIPT 010335Z 0104/0124 07007KT P6SM VCSH SCT005 BKN100
     FM010700 26006KT 4SM BR BKN004
     FM011300 28008G15KT P6SM SCT035=



000
FTUS41 KCTP 010335 AAB
TAFJST
TAF AMD
KJST 010335Z 0104/0124 23008KT P6SM SCT018 BKN090
     FM010700 29007KT 3SM BR OVC009
     FM011400 30008G15KT P6SM SCT030=



000
FTUS41 KCTP 010335 AAB
TAFBFD
TAF AMD
KBFD 010335Z 0104/0124 21007KT P6SM VCSH SCT005 BKN009
      TEMPO 0104/0107 2SM SHRA BR OVC012
     FM010700 28006KT 4SM BR OVC009
     FM011400 29008G15KT P6SM SCT030=



000
FTUS41 KCTP 010335 AAB
TAFAOO
TAF AMD
KAOO 010335Z 0104/0124 25007KT P6SM SCT030 BKN100
     FM010800 28007KT 5SM BR BKN020
     FM011300 29008G15KT P6SM SCT035=



000
FTUS41 KCTP 010335 AAB
TAFAOO
TAF AMD
KAOO 010335Z 0104/0124 25007KT P6SM SCT030 BKN100
     FM010800 28007KT 5SM BR BKN020
     FM011300 29008G15KT P6SM SCT035=



000
FTUS41 KCTP 010335 AAA
TAFMDT
TAF AMD
KMDT 010335Z 0104/0124 15006KT P6SM VCTS BKN035CB
      TEMPO 0104/0105 26015G28KT 1SM +TSRA BR OVC025CB
     FM010500 24006KT P6SM SCT030
     FM010800 26006KT 4SM BR SCT020
     FM011300 29008G15KT P6SM SCT035=



000
FTUS41 KCTP 010335 AAB
TAFUNV
TAF AMD
KUNV 010335Z 0104/0124 26007KT P6SM SCT035 BKN100
     FM010800 27007KT 5SM BR BKN020
     FM011300 29008G15KT P6SM SCT035=



000
FTUS41 KCTP 010335 AAB
TAFIPT
TAF AMD
KIPT 010335Z 0104/0124 07007KT P6SM VCSH SCT005 BKN100
     FM010700 26006KT 4SM BR BKN004
     FM011300 28008G15KT P6SM SCT035=



000
FTUS41 KCTP 010335 AAB
TAFUNV
TAF AMD
KUNV 010335Z 0104/0124 26007KT P6SM SCT035 BKN100
     FM010800 27007KT 5SM BR BKN020
     FM011300 29008G15KT P6SM SCT035=



000
FTUS41 KCTP 010335 AAB
TAFBFD
TAF AMD
KBFD 010335Z 0104/0124 21007KT P6SM VCSH SCT005 BKN009
      TEMPO 0104/0107 2SM SHRA BR OVC012
     FM010700 28006KT 4SM BR OVC009
     FM011400 29008G15KT P6SM SCT030=



000
FTUS41 KCTP 010335 AAB
TAFJST
TAF AMD
KJST 010335Z 0104/0124 23008KT P6SM SCT018 BKN090
     FM010700 29007KT 3SM BR OVC009
     FM011400 30008G15KT P6SM SCT030=



000
FTUS41 KCTP 010211 AAA
TAFUNV
TAF AMD
KUNV 010211Z 0102/0124 26007KT P6SM SCT035
     FM010700 27007KT 5SM BR BKN020
     FM011300 29008G15KT P6SM SCT035=



000
FTUS41 KCTP 010211 AAA
TAFUNV
TAF AMD
KUNV 010211Z 0102/0124 26007KT P6SM SCT035
     FM010700 27007KT 5SM BR BKN020
     FM011300 29008G15KT P6SM SCT035=



000
FTUS41 KCTP 010210 AAA
TAFAOO
TAF AMD
KAOO 010210Z 0102/0124 27007KT P6SM SCT030
     FM010700 28007KT 5SM BR BKN020
     FM011300 29008G15KT P6SM SCT035=



000
FTUS41 KCTP 010210 AAA
TAFAOO
TAF AMD
KAOO 010210Z 0102/0124 27007KT P6SM SCT030
     FM010700 28007KT 5SM BR BKN020
     FM011300 29008G15KT P6SM SCT035=



000
FTUS41 KCTP 010209 AAA
TAFJST
TAF AMD
KJST 010209Z 0102/0124 26007KT P6SM SCT018
     FM010700 29007KT 3SM BR OVC009
     FM011400 30008G15KT P6SM SCT030=



000
FTUS41 KCTP 010209 AAA
TAFJST
TAF AMD
KJST 010209Z 0102/0124 26007KT P6SM SCT018
     FM010700 29007KT 3SM BR OVC009
     FM011400 30008G15KT P6SM SCT030=



000
FTUS41 KCTP 010209 AAA
TAFJST
TAF AMD
KJST 010209Z 0102/0124 26007KT P6SM SCT018
     FM010700 29007KT 3SM BR OVC009
     FM011400 30008G15KT P6SM SCT030=



000
FTUS41 KCTP 010208 AAA
TAFBFD
TAF AMD
KBFD 010208Z 0102/0124 VRB05KT P6SM BKN018
     FM010700 28006KT 4SM BR OVC009
     FM011400 29008G15KT P6SM SCT030=



000
FTUS41 KCTP 010208 AAA
TAFBFD
TAF AMD
KBFD 010208Z 0102/0124 VRB05KT P6SM BKN018
     FM010700 28006KT 4SM BR OVC009
     FM011400 29008G15KT P6SM SCT030=



    US Dept of Commerce
    National Oceanic and Atmospheric Administration
    National Weather Service
    1325 East West Highway
    Silver Spring, MD 20910
    Page Author: NWS Internet Services Team
Disclaimer
Information Quality
Credits
Glossary
Privacy Policy
Freedom of Information Act (FOIA)
About Us
Career Opportunities